BAW169 YMML-ZSPD
Flight info
| Callsign | BAW169 |
|---|---|
| Flight time | 10h 28m |
| Altitude | 34000 |
| Route | MNG Q76 LAKOT/N0500F350 Y80 VOMPA/N0504F340 Q165 TL R346 TOSAS/N0501F360 R346 PY B586 ASADE/N0492F380 B586 UNZ G339 AGIKA Z41 POTET Y592 ONIKU A593 LAMEN/K0909F380 A593 DUMET DUM93A |
| Aircraft | A35K/H-SDE2E3GHIJ3J4J5LM1ORWXY/LB1D1 |
Departure
| Time | 2026-04-30 10:49 |
|---|---|
| Airport | Melbourne Airport (YMML) |
Arrival
| Time | 2026-04-30 21:18 |
|---|---|
| Airport | Shanghai Pudong International Airport (ZSPD) |
| Time | Latitude | Longitude | Altitude | Speed | Heading |
|---|---|---|---|---|---|
| 2026-04-30 10:05 | -37.66742 | 144.84643 | 403 ft | 0 kts | 172° |
| 2026-04-30 10:34 | -37.66741 | 144.84643 | 403 ft | 1 kts | 172° |
| 2026-04-30 10:35 | -37.66726 | 144.84640 | 400 ft | 3 kts | 163° |
| 2026-04-30 10:35 | -37.66708 | 144.84631 | 401 ft | 3 kts | 152° |
| 2026-04-30 10:35 | -37.66691 | 144.84621 | 402 ft | 3 kts | 181° |
| 2026-04-30 10:35 | -37.66676 | 144.84624 | 402 ft | 3 kts | 203° |
| 2026-04-30 10:36 | -37.66660 | 144.84637 | 403 ft | 3 kts | 231° |
| 2026-04-30 10:36 | -37.66650 | 144.84658 | 401 ft | 3 kts | 251° |
| 2026-04-30 10:36 | -37.66645 | 144.84678 | 405 ft | 2 kts | 261° |
| 2026-04-30 10:36 | -37.66645 | 144.84681 | 405 ft | 0 kts | 262° |
| 2026-04-30 10:40 | -37.66647 | 144.84660 | 400 ft | 6 kts | 262° |
| 2026-04-30 10:40 | -37.66655 | 144.84596 | 406 ft | 9 kts | 262° |
| 2026-04-30 10:41 | -37.66665 | 144.84507 | 404 ft | 12 kts | 261° |
| 2026-04-30 10:41 | -37.66678 | 144.84395 | 401 ft | 14 kts | 261° |
| 2026-04-30 10:41 | -37.66693 | 144.84272 | 399 ft | 14 kts | 262° |
| 2026-04-30 10:41 | -37.66712 | 144.84191 | 397 ft | 8 kts | 225° |
| 2026-04-30 10:42 | -37.66776 | 144.84190 | 397 ft | 11 kts | 173° |
| 2026-04-30 10:42 | -37.66870 | 144.84206 | 394 ft | 15 kts | 171° |
| 2026-04-30 10:42 | -37.66988 | 144.84229 | 392 ft | 19 kts | 172° |
| 2026-04-30 10:42 | -37.67121 | 144.84254 | 389 ft | 19 kts | 171° |
| 2026-04-30 10:43 | -37.67260 | 144.84280 | 386 ft | 21 kts | 172° |
| 2026-04-30 10:43 | -37.67413 | 144.84308 | 383 ft | 23 kts | 172° |
| 2026-04-30 10:43 | -37.67584 | 144.84340 | 379 ft | 26 kts | 172° |
| 2026-04-30 10:43 | -37.67772 | 144.84376 | 376 ft | 29 kts | 172° |
| 2026-04-30 10:44 | -37.67934 | 144.84406 | 366 ft | 12 kts | 171° |
| 2026-04-30 10:44 | -37.68028 | 144.84423 | 364 ft | 16 kts | 171° |
| 2026-04-30 10:44 | -37.68147 | 144.84445 | 365 ft | 19 kts | 172° |
| 2026-04-30 10:44 | -37.68276 | 144.84469 | 363 ft | 17 kts | 172° |
| 2026-04-30 10:45 | -37.68379 | 144.84443 | 361 ft | 16 kts | 212° |
| 2026-04-30 10:45 | -37.68470 | 144.84364 | 359 ft | 14 kts | 213° |
| 2026-04-30 10:45 | -37.68540 | 144.84295 | 355 ft | 11 kts | 235° |
| 2026-04-30 10:45 | -37.68549 | 144.84255 | 354 ft | 0 kts | 258° |
| 2026-04-30 10:47 | -37.68550 | 144.84244 | 352 ft | 3 kts | 259° |
| 2026-04-30 10:47 | -37.68555 | 144.84209 | 352 ft | 4 kts | 260° |
| 2026-04-30 10:47 | -37.68560 | 144.84173 | 355 ft | 4 kts | 261° |
| 2026-04-30 10:48 | -37.68564 | 144.84142 | 356 ft | 4 kts | 261° |
| 2026-04-30 10:48 | -37.68562 | 144.84122 | 356 ft | 1 kts | 285° |
| 2026-04-30 10:48 | -37.68551 | 144.84106 | 353 ft | 5 kts | 317° |
| 2026-04-30 10:48 | -37.68468 | 144.84078 | 358 ft | 23 kts | 353° |
| 2026-04-30 10:49 | -37.68189 | 144.84027 | 362 ft | 70 kts | 351° |
| 2026-04-30 10:49 | -37.67482 | 144.83896 | 377 ft | 133 kts | 352° |
| 2026-04-30 10:49 | -37.66393 | 144.83701 | 483 ft | 178 kts | 354° |
| 2026-04-30 10:49 | -37.65139 | 144.83500 | 1103 ft | 185 kts | 354° |
| 2026-04-30 10:50 | -37.63852 | 144.83262 | 1856 ft | 189 kts | 353° |
| 2026-04-30 10:50 | -37.62502 | 144.82984 | 2200 ft | 206 kts | 352° |
| 2026-04-30 10:50 | -37.61040 | 144.82686 | 2407 ft | 225 kts | 352° |
| 2026-04-30 10:50 | -37.59451 | 144.82473 | 2838 ft | 234 kts | 2° |
| 2026-04-30 10:51 | -37.57867 | 144.82997 | 3419 ft | 238 kts | 21° |
| 2026-04-30 10:51 | -37.56334 | 144.83908 | 4030 ft | 243 kts | 23° |
| 2026-04-30 10:51 | -37.54835 | 144.84845 | 4695 ft | 245 kts | 23° |
| 2026-04-30 10:51 | -37.53306 | 144.85788 | 5343 ft | 246 kts | 23° |
| 2026-04-30 10:52 | -37.51759 | 144.86741 | 5960 ft | 250 kts | 22° |
| 2026-04-30 10:52 | -37.50172 | 144.87711 | 6526 ft | 255 kts | 22° |
| 2026-04-30 10:52 | -37.48558 | 144.88693 | 7082 ft | 259 kts | 21° |
| 2026-04-30 10:52 | -37.46929 | 144.89682 | 7656 ft | 262 kts | 21° |
| 2026-04-30 10:53 | -37.45270 | 144.90688 | 8212 ft | 266 kts | 21° |
| 2026-04-30 10:53 | -37.43587 | 144.91709 | 8807 ft | 270 kts | 21° |
| 2026-04-30 10:53 | -37.41868 | 144.92680 | 9408 ft | 272 kts | 18° |
| 2026-04-30 10:53 | -37.40095 | 144.93557 | 10000 ft | 275 kts | 17° |
| 2026-04-30 10:54 | -37.38274 | 144.94445 | 10386 ft | 287 kts | 17° |
| 2026-04-30 10:54 | -37.36363 | 144.95386 | 10613 ft | 303 kts | 18° |
| 2026-04-30 10:54 | -37.34354 | 144.96389 | 10867 ft | 318 kts | 18° |
| 2026-04-30 10:54 | -37.32253 | 144.97445 | 11124 ft | 332 kts | 18° |
| 2026-04-30 10:55 | -37.30066 | 144.98549 | 11369 ft | 346 kts | 19° |
| 2026-04-30 10:55 | -37.27795 | 144.99697 | 11604 ft | 358 kts | 19° |
| 2026-04-30 10:55 | -37.25452 | 145.00882 | 11941 ft | 367 kts | 19° |
| 2026-04-30 10:55 | -37.23068 | 145.02090 | 12382 ft | 373 kts | 19° |
| 2026-04-30 10:56 | -37.20644 | 145.03315 | 12864 ft | 377 kts | 19° |
| 2026-04-30 10:56 | -37.18207 | 145.04545 | 13375 ft | 379 kts | 19° |
| 2026-04-30 10:56 | -37.15773 | 145.05772 | 13889 ft | 382 kts | 19° |
| 2026-04-30 10:56 | -37.13299 | 145.07019 | 14349 ft | 385 kts | 19° |
| 2026-04-30 10:57 | -37.11208 | 145.08071 | 14723 ft | 387 kts | 19° |
| 2026-04-30 10:57 | -37.08702 | 145.09331 | 15193 ft | 389 kts | 19° |
| 2026-04-30 10:57 | -37.07122 | 145.10126 | 15470 ft | 391 kts | 19° |
| 2026-04-30 10:57 | -37.04906 | 145.11240 | 15874 ft | 393 kts | 19° |
| 2026-04-30 10:58 | -37.02359 | 145.12519 | 16338 ft | 395 kts | 19° |
| 2026-04-30 10:58 | -36.99792 | 145.13807 | 16792 ft | 398 kts | 19° |
| 2026-04-30 10:58 | -36.97216 | 145.15099 | 17242 ft | 401 kts | 19° |
| 2026-04-30 10:58 | -36.94616 | 145.16402 | 17695 ft | 404 kts | 19° |
| 2026-04-30 10:59 | -36.91996 | 145.17700 | 18134 ft | 406 kts | 18° |
| 2026-04-30 10:59 | -36.89291 | 145.18735 | 18560 ft | 406 kts | 10° |
| 2026-04-30 10:59 | -36.86494 | 145.19215 | 18933 ft | 406 kts | 0° |
| 2026-04-30 10:59 | -36.83665 | 145.19262 | 19290 ft | 408 kts | 357° |
| 2026-04-30 11:00 | -36.81746 | 145.19192 | 19533 ft | 410 kts | 355° |
| 2026-04-30 11:00 | -36.78888 | 145.19009 | 19916 ft | 411 kts | 354° |
| 2026-04-30 11:00 | -36.76063 | 145.18791 | 20281 ft | 414 kts | 354° |
| 2026-04-30 11:00 | -36.73180 | 145.18567 | 20644 ft | 417 kts | 354° |
| 2026-04-30 11:01 | -36.70280 | 145.18355 | 21011 ft | 419 kts | 355° |
| 2026-04-30 11:01 | -36.67358 | 145.18158 | 21368 ft | 422 kts | 355° |
| 2026-04-30 11:01 | -36.64413 | 145.17972 | 21750 ft | 424 kts | 355° |
| 2026-04-30 11:01 | -36.61458 | 145.17793 | 22119 ft | 426 kts | 355° |
| 2026-04-30 11:02 | -36.58489 | 145.17618 | 22465 ft | 429 kts | 355° |
| 2026-04-30 11:02 | -36.55497 | 145.17442 | 22831 ft | 431 kts | 355° |
| 2026-04-30 11:02 | -36.52491 | 145.17266 | 23176 ft | 434 kts | 355° |
| 2026-04-30 11:02 | -36.49464 | 145.17088 | 23528 ft | 436 kts | 355° |
| 2026-04-30 11:03 | -36.46424 | 145.16908 | 23873 ft | 439 kts | 355° |
| 2026-04-30 11:03 | -36.43364 | 145.16727 | 24178 ft | 440 kts | 355° |
| 2026-04-30 11:03 | -36.40299 | 145.16547 | 24510 ft | 442 kts | 355° |
| 2026-04-30 11:04 | -36.34139 | 145.16182 | 25116 ft | 445 kts | 355° |
| 2026-04-30 11:04 | -36.31040 | 145.15999 | 25427 ft | 447 kts | 355° |
| 2026-04-30 11:04 | -36.27924 | 145.15815 | 25738 ft | 449 kts | 355° |
| 2026-04-30 11:04 | -36.24806 | 145.15631 | 26065 ft | 450 kts | 355° |
| 2026-04-30 11:05 | -36.21657 | 145.15445 | 26309 ft | 454 kts | 355° |
| 2026-04-30 11:05 | -36.18497 | 145.15258 | 26630 ft | 456 kts | 355° |
| 2026-04-30 11:05 | -36.15321 | 145.15072 | 26970 ft | 457 kts | 355° |
| 2026-04-30 11:05 | -36.12141 | 145.14886 | 27309 ft | 459 kts | 355° |
| 2026-04-30 11:06 | -36.08936 | 145.14698 | 27634 ft | 461 kts | 355° |
| 2026-04-30 11:06 | -36.05731 | 145.14510 | 27971 ft | 463 kts | 355° |
| 2026-04-30 11:06 | -36.02505 | 145.14320 | 28281 ft | 465 kts | 355° |
| 2026-04-30 11:06 | -35.99263 | 145.14130 | 28561 ft | 468 kts | 355° |
| 2026-04-30 11:07 | -35.96108 | 145.13945 | 28861 ft | 470 kts | 355° |
| 2026-04-30 11:07 | -35.92750 | 145.13749 | 29205 ft | 471 kts | 355° |
| 2026-04-30 11:07 | -35.89456 | 145.13557 | 29519 ft | 472 kts | 355° |
| 2026-04-30 11:07 | -35.86164 | 145.13365 | 29792 ft | 475 kts | 355° |
| 2026-04-30 11:08 | -35.82860 | 145.13172 | 30021 ft | 477 kts | 355° |
| 2026-04-30 11:08 | -35.79536 | 145.12978 | 30300 ft | 478 kts | 355° |
| 2026-04-30 11:08 | -35.76215 | 145.12785 | 30646 ft | 477 kts | 355° |
| 2026-04-30 11:08 | -35.72907 | 145.12593 | 31031 ft | 475 kts | 355° |
| 2026-04-30 11:09 | -35.69612 | 145.12403 | 31404 ft | 473 kts | 355° |
| 2026-04-30 11:09 | -35.66334 | 145.12214 | 31768 ft | 471 kts | 355° |
| 2026-04-30 11:09 | -35.63060 | 145.12025 | 32120 ft | 469 kts | 355° |
| 2026-04-30 11:09 | -35.59802 | 145.11836 | 32426 ft | 469 kts | 355° |
| 2026-04-30 11:10 | -35.56544 | 145.11646 | 32707 ft | 468 kts | 355° |
| 2026-04-30 11:10 | -35.53301 | 145.11458 | 33043 ft | 467 kts | 355° |
| 2026-04-30 11:10 | -35.50059 | 145.11271 | 33391 ft | 465 kts | 355° |
| 2026-04-30 11:10 | -35.46875 | 145.11087 | 33715 ft | 463 kts | 355° |
| 2026-04-30 11:11 | -35.43661 | 145.10902 | 34056 ft | 462 kts | 355° |
| 2026-04-30 11:11 | -35.40452 | 145.10716 | 34280 ft | 463 kts | 355° |
| 2026-04-30 11:11 | -35.37223 | 145.10527 | 34315 ft | 467 kts | 355° |
| 2026-04-30 11:12 | -35.30723 | 145.10152 | 34317 ft | 468 kts | 355° |
| 2026-04-30 11:12 | -35.24224 | 145.09780 | 34317 ft | 467 kts | 355° |
| 2026-04-30 11:13 | -35.17722 | 145.09407 | 34314 ft | 467 kts | 355° |
| 2026-04-30 11:13 | -35.11223 | 145.09035 | 34314 ft | 467 kts | 355° |
| 2026-04-30 11:14 | -35.04725 | 145.08663 | 34316 ft | 467 kts | 355° |
| 2026-04-30 11:14 | -34.98231 | 145.08292 | 34314 ft | 467 kts | 355° |
| 2026-04-30 11:15 | -34.91718 | 145.08208 | 34315 ft | 469 kts | 0° |
| 2026-04-30 11:15 | -34.85197 | 145.08670 | 34314 ft | 470 kts | 2° |
| 2026-04-30 11:16 | -34.78672 | 145.09234 | 34314 ft | 470 kts | 2° |
| 2026-04-30 11:16 | -34.72194 | 145.09799 | 34314 ft | 470 kts | 2° |
| 2026-04-30 11:17 | -34.65622 | 145.10360 | 34311 ft | 470 kts | 2° |
| 2026-04-30 11:17 | -34.59143 | 145.10906 | 34311 ft | 470 kts | 2° |
| 2026-04-30 11:18 | -34.52615 | 145.11452 | 34313 ft | 470 kts | 2° |
| 2026-04-30 11:18 | -34.42820 | 145.12272 | 34311 ft | 470 kts | 2° |
| 2026-04-30 11:19 | -34.36290 | 145.12818 | 34309 ft | 470 kts | 2° |
| 2026-04-30 11:19 | -34.29744 | 145.13363 | 34309 ft | 473 kts | 2° |
| 2026-04-30 11:20 | -34.23179 | 145.13910 | 34308 ft | 473 kts | 2° |
| 2026-04-30 11:20 | -34.16603 | 145.14457 | 34308 ft | 473 kts | 2° |
| 2026-04-30 11:21 | -34.10021 | 145.15003 | 34306 ft | 475 kts | 2° |
| 2026-04-30 11:21 | -34.03431 | 145.15550 | 34306 ft | 475 kts | 2° |
| 2026-04-30 11:22 | -33.96838 | 145.16096 | 34309 ft | 475 kts | 2° |
| 2026-04-30 11:22 | -33.90246 | 145.16640 | 34308 ft | 474 kts | 2° |
| 2026-04-30 11:23 | -33.83660 | 145.17184 | 34309 ft | 474 kts | 2° |
| 2026-04-30 11:24 | -33.73787 | 145.17997 | 34306 ft | 474 kts | 2° |
| 2026-04-30 11:24 | -33.67209 | 145.18538 | 34309 ft | 474 kts | 2° |
| 2026-04-30 11:25 | -33.57333 | 145.19349 | 34308 ft | 474 kts | 2° |
| 2026-04-30 11:26 | -33.44175 | 145.20424 | 34309 ft | 474 kts | 3° |
| 2026-04-30 11:26 | -33.37588 | 145.20963 | 34308 ft | 474 kts | 3° |
| 2026-04-30 11:27 | -33.31007 | 145.21499 | 34311 ft | 474 kts | 3° |
| 2026-04-30 11:27 | -33.24414 | 145.22036 | 34309 ft | 475 kts | 3° |
| 2026-04-30 11:28 | -33.14528 | 145.22840 | 34308 ft | 475 kts | 3° |
| 2026-04-30 11:29 | -33.07982 | 145.23371 | 34308 ft | 475 kts | 3° |
| 2026-04-30 11:29 | -32.98093 | 145.24171 | 34308 ft | 475 kts | 3° |
| 2026-04-30 11:30 | -32.88211 | 145.24969 | 34311 ft | 475 kts | 3° |
| 2026-04-30 11:31 | -32.81619 | 145.25500 | 34312 ft | 474 kts | 3° |
| 2026-04-30 11:31 | -32.75033 | 145.26030 | 34311 ft | 475 kts | 3° |
| 2026-04-30 11:32 | -32.68450 | 145.26564 | 34307 ft | 474 kts | 5° |
| 2026-04-30 11:32 | -32.61860 | 145.27124 | 34313 ft | 478 kts | 2° |
| 2026-04-30 11:33 | -32.51877 | 145.27897 | 34314 ft | 478 kts | 2° |
| 2026-04-30 11:33 | -32.45247 | 145.28419 | 34314 ft | 478 kts | 3° |
| 2026-04-30 11:34 | -32.38587 | 145.28949 | 34317 ft | 479 kts | 3° |
| 2026-04-30 11:34 | -32.31930 | 145.29480 | 34317 ft | 480 kts | 3° |
| 2026-04-30 11:35 | -32.25269 | 145.30011 | 34317 ft | 480 kts | 3° |
| 2026-04-30 11:35 | -32.18610 | 145.30539 | 34316 ft | 480 kts | 3° |
| 2026-04-30 11:36 | -32.11948 | 145.31068 | 34316 ft | 480 kts | 3° |
| 2026-04-30 11:36 | -32.05291 | 145.31597 | 34316 ft | 480 kts | 3° |
| 2026-04-30 11:37 | -31.98628 | 145.32057 | 34312 ft | 479 kts | 1° |
| 2026-04-30 11:37 | -31.92009 | 145.32201 | 34314 ft | 479 kts | 0° |
| 2026-04-30 11:38 | -31.85284 | 145.32301 | 34314 ft | 479 kts | 0° |
| 2026-04-30 11:38 | -31.78614 | 145.32446 | 34314 ft | 479 kts | 1° |
| 2026-04-30 11:39 | -31.71946 | 145.32618 | 34316 ft | 479 kts | 1° |
| 2026-04-30 11:39 | -31.65294 | 145.32798 | 34317 ft | 478 kts | 1° |
| 2026-04-30 11:40 | -31.58640 | 145.32978 | 34316 ft | 478 kts | 1° |
| 2026-04-30 11:40 | -31.52026 | 145.33154 | 34311 ft | 478 kts | 1° |
| 2026-04-30 11:41 | -31.45383 | 145.33330 | 34309 ft | 477 kts | 1° |
| 2026-04-30 11:41 | -31.38737 | 145.33506 | 34321 ft | 477 kts | 1° |
| 2026-04-30 11:42 | -31.32097 | 145.33690 | 34306 ft | 477 kts | 1° |
| 2026-04-30 11:42 | -31.25454 | 145.33861 | 34307 ft | 478 kts | 1° |
| 2026-04-30 11:43 | -31.18797 | 145.34032 | 34315 ft | 478 kts | 1° |
| 2026-04-30 11:43 | -31.12153 | 145.34204 | 34301 ft | 478 kts | 1° |
| 2026-04-30 11:44 | -31.05501 | 145.34379 | 34305 ft | 480 kts | 0° |
| 2026-04-30 11:44 | -30.98782 | 145.34556 | 34306 ft | 482 kts | 0° |
| 2026-04-30 11:45 | -30.92089 | 145.34731 | 34298 ft | 482 kts | 0° |
| 2026-04-30 11:45 | -30.85381 | 145.34905 | 34318 ft | 481 kts | 0° |
| 2026-04-30 11:46 | -30.78709 | 145.35078 | 34306 ft | 481 kts | 0° |
| 2026-04-30 11:46 | -30.71999 | 145.35254 | 34304 ft | 482 kts | 0° |
| 2026-04-30 11:47 | -30.65287 | 145.35429 | 34300 ft | 482 kts | 0° |
| 2026-04-30 11:47 | -30.59697 | 145.35577 | 34295 ft | 484 kts | 0° |
| 2026-04-30 11:48 | -30.51857 | 145.35780 | 34297 ft | 485 kts | 0° |
| 2026-04-30 11:48 | -30.46241 | 145.35924 | 34292 ft | 485 kts | 0° |
| 2026-04-30 11:49 | -30.39489 | 145.36099 | 34288 ft | 485 kts | 359° |
| 2026-04-30 11:49 | -30.32713 | 145.36276 | 34290 ft | 487 kts | 359° |
| 2026-04-30 11:50 | -30.25935 | 145.36450 | 34292 ft | 487 kts | 359° |
| 2026-04-30 11:50 | -30.19152 | 145.36623 | 34293 ft | 487 kts | 359° |
| 2026-04-30 11:51 | -30.12392 | 145.36800 | 34291 ft | 489 kts | 359° |
| 2026-04-30 11:51 | -30.05555 | 145.36975 | 34287 ft | 491 kts | 359° |
| 2026-04-30 11:52 | -29.98757 | 145.37148 | 34289 ft | 491 kts | 359° |
| 2026-04-30 11:52 | -29.91921 | 145.37324 | 34286 ft | 492 kts | 358° |
| 2026-04-30 11:53 | -29.85040 | 145.37499 | 34286 ft | 495 kts | 358° |
| 2026-04-30 11:53 | -29.78158 | 145.37674 | 34286 ft | 496 kts | 358° |
| 2026-04-30 11:54 | -29.71246 | 145.37851 | 34287 ft | 496 kts | 358° |
| 2026-04-30 11:54 | -29.64360 | 145.38031 | 34285 ft | 498 kts | 358° |
| 2026-04-30 11:55 | -29.57410 | 145.38207 | 34281 ft | 499 kts | 358° |
| 2026-04-30 11:55 | -29.50456 | 145.38382 | 34278 ft | 499 kts | 358° |
| 2026-04-30 11:56 | -29.43552 | 145.38558 | 34277 ft | 500 kts | 357° |
| 2026-04-30 11:56 | -29.36553 | 145.38735 | 34279 ft | 502 kts | 357° |
| 2026-04-30 11:57 | -29.29604 | 145.38910 | 34279 ft | 503 kts | 357° |
| 2026-04-30 11:57 | -29.22594 | 145.39087 | 34269 ft | 503 kts | 357° |
| 2026-04-30 11:58 | -29.15563 | 145.39265 | 34278 ft | 506 kts | 356° |
| 2026-04-30 11:58 | -29.08559 | 145.39441 | 34276 ft | 506 kts | 357° |
| 2026-04-30 11:59 | -29.01501 | 145.39620 | 34276 ft | 506 kts | 357° |
| 2026-04-30 11:59 | -28.94420 | 145.39806 | 34273 ft | 508 kts | 356° |
| 2026-04-30 12:00 | -28.87387 | 145.39979 | 34276 ft | 509 kts | 356° |
| 2026-04-30 12:00 | -28.80288 | 145.40153 | 34273 ft | 509 kts | 356° |
| 2026-04-30 12:01 | -28.73192 | 145.40329 | 34262 ft | 509 kts | 356° |
| 2026-04-30 12:01 | -28.66120 | 145.40506 | 34268 ft | 511 kts | 357° |
| 2026-04-30 12:02 | -28.59003 | 145.40684 | 34265 ft | 511 kts | 357° |
| 2026-04-30 12:02 | -28.51875 | 145.40862 | 34262 ft | 511 kts | 356° |
| 2026-04-30 12:03 | -28.41226 | 145.41127 | 34262 ft | 511 kts | 356° |
| 2026-04-30 12:04 | -28.34085 | 145.41304 | 34262 ft | 511 kts | 357° |
| 2026-04-30 12:04 | -28.27014 | 145.41480 | 34251 ft | 511 kts | 357° |
| 2026-04-30 12:05 | -28.19890 | 145.41656 | 34261 ft | 512 kts | 357° |
| 2026-04-30 12:05 | -28.12802 | 145.41832 | 34256 ft | 512 kts | 357° |
| 2026-04-30 12:06 | -28.05659 | 145.42008 | 34258 ft | 512 kts | 357° |
| 2026-04-30 12:06 | -27.98534 | 145.42184 | 34257 ft | 512 kts | 357° |
| 2026-04-30 12:07 | -27.91434 | 145.42359 | 34253 ft | 513 kts | 357° |
| 2026-04-30 12:07 | -27.84292 | 145.42535 | 34250 ft | 513 kts | 357° |
| 2026-04-30 12:08 | -27.77145 | 145.42711 | 34243 ft | 513 kts | 357° |
| 2026-04-30 12:08 | -27.70006 | 145.42886 | 34252 ft | 513 kts | 357° |
| 2026-04-30 12:09 | -27.62900 | 145.43060 | 34248 ft | 513 kts | 357° |
| 2026-04-30 12:09 | -27.55755 | 145.43235 | 34250 ft | 513 kts | 357° |
| 2026-04-30 12:10 | -27.48603 | 145.43411 | 34245 ft | 513 kts | 357° |
| 2026-04-30 12:10 | -27.41504 | 145.43584 | 34246 ft | 513 kts | 357° |
| 2026-04-30 12:11 | -27.34335 | 145.43759 | 34245 ft | 513 kts | 357° |
| 2026-04-30 12:11 | -27.27241 | 145.43933 | 34234 ft | 513 kts | 357° |
| 2026-04-30 12:12 | -27.20094 | 145.44112 | 34238 ft | 512 kts | 357° |
| 2026-04-30 12:12 | -27.12949 | 145.44283 | 34235 ft | 512 kts | 356° |
| 2026-04-30 12:13 | -27.05861 | 145.44452 | 34235 ft | 512 kts | 357° |
| 2026-04-30 12:13 | -26.98718 | 145.44624 | 34233 ft | 512 kts | 356° |
| 2026-04-30 12:14 | -26.91623 | 145.44796 | 34228 ft | 512 kts | 356° |
| 2026-04-30 12:14 | -26.84491 | 145.44968 | 34239 ft | 512 kts | 356° |
| 2026-04-30 12:15 | -26.77359 | 145.45141 | 34227 ft | 512 kts | 356° |
| 2026-04-30 12:15 | -26.70235 | 145.45313 | 34229 ft | 511 kts | 356° |
| 2026-04-30 12:16 | -26.63160 | 145.45483 | 34233 ft | 511 kts | 356° |
| 2026-04-30 12:16 | -26.56031 | 145.45655 | 34223 ft | 511 kts | 356° |
| 2026-04-30 12:17 | -26.45360 | 145.45911 | 34223 ft | 511 kts | 356° |
| 2026-04-30 12:17 | -26.38284 | 145.46081 | 34222 ft | 511 kts | 357° |
| 2026-04-30 12:18 | -26.31166 | 145.46251 | 34225 ft | 511 kts | 356° |
| 2026-04-30 12:18 | -26.24045 | 145.46422 | 34218 ft | 511 kts | 357° |
| 2026-04-30 12:19 | -26.16935 | 145.46591 | 34222 ft | 511 kts | 357° |
| 2026-04-30 12:19 | -26.09864 | 145.46760 | 34222 ft | 511 kts | 357° |
| 2026-04-30 12:20 | -26.02752 | 145.46929 | 34219 ft | 511 kts | 357° |
| 2026-04-30 12:20 | -25.95624 | 145.47099 | 34220 ft | 511 kts | 357° |
| 2026-04-30 12:21 | -25.88555 | 145.47268 | 34220 ft | 510 kts | 357° |
| 2026-04-30 12:21 | -25.81431 | 145.47437 | 34219 ft | 510 kts | 357° |
| 2026-04-30 12:22 | -25.74323 | 145.47605 | 34220 ft | 510 kts | 357° |
| 2026-04-30 12:22 | -25.67260 | 145.47773 | 34217 ft | 510 kts | 357° |
| 2026-04-30 12:23 | -25.60150 | 145.47941 | 34218 ft | 510 kts | 357° |
| 2026-04-30 12:23 | -25.53071 | 145.48108 | 34204 ft | 510 kts | 357° |
| 2026-04-30 12:24 | -25.45962 | 145.48276 | 34212 ft | 510 kts | 357° |
| 2026-04-30 12:24 | -25.38858 | 145.48444 | 34213 ft | 510 kts | 357° |
| 2026-04-30 12:25 | -25.31748 | 145.48611 | 34211 ft | 510 kts | 357° |
| 2026-04-30 12:25 | -25.24686 | 145.48778 | 34210 ft | 510 kts | 357° |
| 2026-04-30 12:26 | -25.17562 | 145.48945 | 34211 ft | 510 kts | 357° |
| 2026-04-30 12:26 | -25.10492 | 145.49111 | 34201 ft | 510 kts | 357° |
| 2026-04-30 12:27 | -25.03374 | 145.49278 | 34202 ft | 510 kts | 357° |
| 2026-04-30 12:27 | -24.96257 | 145.49445 | 34187 ft | 511 kts | 357° |
| 2026-04-30 12:28 | -24.89192 | 145.49610 | 34206 ft | 511 kts | 357° |
| 2026-04-30 12:28 | -24.82072 | 145.49776 | 34195 ft | 511 kts | 357° |
| 2026-04-30 12:29 | -24.74957 | 145.49943 | 34196 ft | 511 kts | 356° |
| 2026-04-30 12:29 | -24.67869 | 145.50108 | 34197 ft | 511 kts | 356° |
| 2026-04-30 12:30 | -24.60747 | 145.50273 | 34197 ft | 511 kts | 356° |
| 2026-04-30 12:30 | -24.53621 | 145.50439 | 34197 ft | 511 kts | 356° |
| 2026-04-30 12:31 | -24.46538 | 145.50604 | 34194 ft | 511 kts | 356° |
| 2026-04-30 12:31 | -24.39410 | 145.50770 | 34192 ft | 511 kts | 356° |
| 2026-04-30 12:32 | -24.32290 | 145.50935 | 34192 ft | 511 kts | 356° |
| 2026-04-30 12:32 | -24.25210 | 145.51099 | 34179 ft | 511 kts | 356° |
| 2026-04-30 12:33 | -24.18070 | 145.51264 | 34192 ft | 512 kts | 356° |
| 2026-04-30 12:33 | -24.10984 | 145.51427 | 34192 ft | 512 kts | 356° |
| 2026-04-30 12:34 | -24.05055 | 145.51564 | 34192 ft | 512 kts | 356° |
| 2026-04-30 12:34 | -23.97920 | 145.51730 | 34180 ft | 512 kts | 356° |
| 2026-04-30 12:35 | -23.90784 | 145.51896 | 34186 ft | 512 kts | 356° |
| 2026-04-30 12:35 | -23.83686 | 145.52055 | 34186 ft | 512 kts | 356° |
| 2026-04-30 12:36 | -23.76549 | 145.52216 | 34187 ft | 512 kts | 356° |
| 2026-04-30 12:36 | -23.69420 | 145.52378 | 34186 ft | 512 kts | 356° |
| 2026-04-30 12:37 | -23.62312 | 145.52540 | 34187 ft | 512 kts | 356° |
| 2026-04-30 12:37 | -23.55184 | 145.52703 | 34186 ft | 512 kts | 356° |
| 2026-04-30 12:38 | -23.48057 | 145.52865 | 34184 ft | 511 kts | 356° |
| 2026-04-30 12:38 | -23.40970 | 145.53026 | 34181 ft | 511 kts | 356° |
| 2026-04-30 12:39 | -23.33854 | 145.53187 | 34181 ft | 511 kts | 356° |
| 2026-04-30 12:39 | -23.26717 | 145.53348 | 34181 ft | 511 kts | 356° |
| 2026-04-30 12:40 | -23.19628 | 145.53509 | 34159 ft | 511 kts | 356° |
| 2026-04-30 12:40 | -23.12494 | 145.53670 | 34176 ft | 512 kts | 356° |
| 2026-04-30 12:41 | -23.05402 | 145.53831 | 34173 ft | 512 kts | 356° |
| 2026-04-30 12:41 | -22.98260 | 145.53992 | 34173 ft | 512 kts | 356° |
| 2026-04-30 12:42 | -22.91115 | 145.54154 | 34170 ft | 512 kts | 356° |
| 2026-04-30 12:42 | -22.84011 | 145.54313 | 34173 ft | 513 kts | 356° |
| 2026-04-30 12:43 | -22.76878 | 145.54473 | 34167 ft | 513 kts | 356° |
| 2026-04-30 12:43 | -22.69719 | 145.54634 | 34168 ft | 513 kts | 356° |
| 2026-04-30 12:44 | -22.62619 | 145.54794 | 34169 ft | 513 kts | 355° |
| 2026-04-30 12:44 | -22.55470 | 145.54953 | 34167 ft | 513 kts | 355° |
| 2026-04-30 12:45 | -22.48356 | 145.55112 | 34168 ft | 513 kts | 355° |
| 2026-04-30 12:45 | -22.41199 | 145.55272 | 34169 ft | 513 kts | 355° |
| 2026-04-30 12:46 | -22.34095 | 145.55432 | 34164 ft | 513 kts | 355° |
| 2026-04-30 12:46 | -22.26942 | 145.55591 | 34165 ft | 513 kts | 355° |
| 2026-04-30 12:47 | -22.19791 | 145.55750 | 34165 ft | 513 kts | 355° |
| 2026-04-30 12:47 | -22.12701 | 145.55908 | 34152 ft | 513 kts | 355° |
| 2026-04-30 12:48 | -22.05571 | 145.56068 | 34161 ft | 512 kts | 355° |
| 2026-04-30 12:48 | -21.98442 | 145.56226 | 34161 ft | 512 kts | 355° |
| 2026-04-30 12:49 | -21.91307 | 145.56384 | 34165 ft | 512 kts | 355° |
| 2026-04-30 12:49 | -21.84205 | 145.56542 | 34161 ft | 512 kts | 355° |
| 2026-04-30 12:50 | -21.77072 | 145.56700 | 34167 ft | 511 kts | 355° |
| 2026-04-30 12:50 | -21.69953 | 145.56858 | 34164 ft | 511 kts | 355° |
| 2026-04-30 12:51 | -21.62867 | 145.57015 | 34167 ft | 511 kts | 355° |
| 2026-04-30 12:51 | -21.55743 | 145.57381 | 34157 ft | 518 kts | 2° |
| 2026-04-30 12:52 | -21.52200 | 145.58230 | 34327 ft | 525 kts | 12° |
| 2026-04-30 12:52 | -21.48801 | 145.59718 | 34677 ft | 530 kts | 22° |
| 2026-04-30 12:52 | -21.45706 | 145.61802 | 34983 ft | 535 kts | 32° |
| 2026-04-30 12:52 | -21.42751 | 145.64256 | 35138 ft | 539 kts | 34° |
| 2026-04-30 12:53 | -21.36969 | 145.69496 | 35168 ft | 545 kts | 36° |
| 2026-04-30 12:53 | -21.31231 | 145.74821 | 35170 ft | 544 kts | 36° |
| 2026-04-30 12:54 | -21.25503 | 145.80063 | 35175 ft | 544 kts | 35° |
| 2026-04-30 12:54 | -21.19703 | 145.85310 | 35170 ft | 544 kts | 35° |
| 2026-04-30 12:55 | -21.13910 | 145.90530 | 35170 ft | 544 kts | 35° |
| 2026-04-30 12:55 | -21.08154 | 145.95713 | 35166 ft | 543 kts | 35° |
| 2026-04-30 12:56 | -21.02352 | 146.00933 | 35168 ft | 543 kts | 35° |
| 2026-04-30 12:56 | -20.96549 | 146.06151 | 35171 ft | 543 kts | 34° |
| 2026-04-30 12:57 | -20.90784 | 146.11328 | 35165 ft | 544 kts | 34° |
| 2026-04-30 12:57 | -20.84972 | 146.16542 | 35167 ft | 544 kts | 34° |
| 2026-04-30 12:58 | -20.79175 | 146.21739 | 35162 ft | 544 kts | 34° |
| 2026-04-30 12:58 | -20.73369 | 146.26937 | 35163 ft | 544 kts | 34° |
| 2026-04-30 12:59 | -20.67604 | 146.32094 | 35169 ft | 544 kts | 34° |
| 2026-04-30 12:59 | -20.61803 | 146.37278 | 35160 ft | 543 kts | 34° |
| 2026-04-30 13:00 | -20.56007 | 146.42451 | 35161 ft | 543 kts | 34° |
| 2026-04-30 13:00 | -20.50205 | 146.47624 | 35162 ft | 543 kts | 34° |
| 2026-04-30 13:01 | -20.44435 | 146.52763 | 35155 ft | 543 kts | 34° |
| 2026-04-30 13:01 | -20.38632 | 146.57928 | 35154 ft | 542 kts | 34° |
| 2026-04-30 13:02 | -20.32825 | 146.63092 | 35153 ft | 541 kts | 34° |
| 2026-04-30 13:02 | -20.27066 | 146.68205 | 35154 ft | 541 kts | 34° |
| 2026-04-30 13:03 | -20.21272 | 146.73345 | 35154 ft | 541 kts | 34° |
| 2026-04-30 13:03 | -20.15509 | 146.78449 | 35152 ft | 540 kts | 33° |
| 2026-04-30 13:04 | -20.09190 | 146.82497 | 35151 ft | 521 kts | 14° |
| 2026-04-30 13:04 | -20.02362 | 146.84737 | 35156 ft | 514 kts | 8° |
| 2026-04-30 13:05 | -19.95428 | 146.86599 | 35148 ft | 513 kts | 7° |
| 2026-04-30 13:06 | -19.85056 | 146.89270 | 35148 ft | 509 kts | 3° |
| 2026-04-30 13:06 | -19.78125 | 146.89597 | 35147 ft | 489 kts | 346° |
| 2026-04-30 13:07 | -19.71499 | 146.88210 | 35142 ft | 482 kts | 340° |
| 2026-04-30 13:07 | -19.65016 | 146.86487 | 35129 ft | 482 kts | 339° |
| 2026-04-30 13:08 | -19.58509 | 146.84724 | 35139 ft | 482 kts | 339° |
| 2026-04-30 13:08 | -19.51985 | 146.82993 | 35137 ft | 483 kts | 339° |
| 2026-04-30 13:09 | -19.45461 | 146.81288 | 35136 ft | 483 kts | 339° |
| 2026-04-30 13:09 | -19.38966 | 146.79597 | 35132 ft | 483 kts | 339° |
| 2026-04-30 13:10 | -19.32426 | 146.77900 | 35128 ft | 482 kts | 339° |
| 2026-04-30 13:10 | -19.25909 | 146.76318 | 35130 ft | 487 kts | 344° |
| 2026-04-30 13:11 | -19.19037 | 146.76022 | 35131 ft | 498 kts | 354° |
| 2026-04-30 13:11 | -19.12082 | 146.76307 | 35128 ft | 501 kts | 355° |
| 2026-04-30 13:12 | -19.05160 | 146.76687 | 35117 ft | 501 kts | 355° |
| 2026-04-30 13:12 | -18.98196 | 146.77050 | 35117 ft | 501 kts | 355° |
| 2026-04-30 13:13 | -18.87728 | 146.77554 | 35114 ft | 501 kts | 355° |
| 2026-04-30 13:14 | -18.77310 | 146.78046 | 35110 ft | 500 kts | 355° |
| 2026-04-30 13:14 | -18.66898 | 146.78539 | 35110 ft | 500 kts | 355° |
| 2026-04-30 13:15 | -18.56450 | 146.79032 | 35107 ft | 500 kts | 355° |
| 2026-04-30 13:16 | -18.49519 | 146.79360 | 35081 ft | 500 kts | 354° |
| 2026-04-30 13:16 | -18.42594 | 146.79687 | 35098 ft | 499 kts | 354° |
| 2026-04-30 13:17 | -18.32190 | 146.80185 | 35099 ft | 499 kts | 354° |
| 2026-04-30 13:18 | -18.21759 | 146.80687 | 35101 ft | 499 kts | 354° |
| 2026-04-30 13:18 | -18.11349 | 146.81186 | 35093 ft | 499 kts | 354° |
| 2026-04-30 13:19 | -18.04398 | 146.81521 | 35091 ft | 499 kts | 354° |
| 2026-04-30 13:19 | -17.97447 | 146.81856 | 35091 ft | 499 kts | 354° |
| 2026-04-30 13:20 | -17.90547 | 146.82187 | 35082 ft | 499 kts | 355° |
| 2026-04-30 13:20 | -17.83599 | 146.82522 | 35092 ft | 498 kts | 355° |
| 2026-04-30 13:21 | -17.76663 | 146.82859 | 35086 ft | 498 kts | 355° |
| 2026-04-30 13:22 | -17.66299 | 146.83356 | 35081 ft | 498 kts | 355° |
| 2026-04-30 13:22 | -17.57063 | 146.83793 | 35079 ft | 498 kts | 355° |
| 2026-04-30 13:23 | -17.46668 | 146.84290 | 35077 ft | 498 kts | 355° |
| 2026-04-30 13:24 | -17.32828 | 146.84950 | 35068 ft | 498 kts | 355° |
| 2026-04-30 13:25 | -17.19051 | 146.85608 | 35073 ft | 497 kts | 355° |
| 2026-04-30 13:26 | -17.01736 | 146.86432 | 35071 ft | 497 kts | 356° |
| 2026-04-30 13:28 | -16.84457 | 146.87254 | 35062 ft | 498 kts | 356° |
| 2026-04-30 13:28 | -16.74106 | 146.87745 | 35057 ft | 498 kts | 356° |
| 2026-04-30 13:29 | -16.60249 | 146.88401 | 35053 ft | 499 kts | 356° |
| 2026-04-30 13:31 | -16.42908 | 146.89222 | 35053 ft | 499 kts | 356° |
| 2026-04-30 13:32 | -16.25533 | 146.90050 | 35050 ft | 500 kts | 356° |
| 2026-04-30 13:33 | -16.11670 | 146.90705 | 35045 ft | 498 kts | 357° |
| 2026-04-30 13:34 | -16.01307 | 146.91196 | 35040 ft | 498 kts | 357° |
| 2026-04-30 13:35 | -15.87464 | 146.91853 | 35038 ft | 498 kts | 357° |
| 2026-04-30 13:36 | -15.73600 | 146.92510 | 35037 ft | 498 kts | 357° |
| 2026-04-30 13:36 | -15.63251 | 146.93001 | 35033 ft | 498 kts | 357° |
| 2026-04-30 13:37 | -15.52898 | 146.93490 | 35029 ft | 498 kts | 358° |
| 2026-04-30 13:38 | -15.42502 | 146.93981 | 35029 ft | 498 kts | 358° |
| 2026-04-30 13:39 | -15.28634 | 146.94636 | 35026 ft | 498 kts | 358° |
| 2026-04-30 13:40 | -15.18274 | 146.95124 | 35023 ft | 498 kts | 358° |
| 2026-04-30 13:40 | -15.11374 | 146.95449 | 35021 ft | 498 kts | 358° |
| 2026-04-30 13:41 | -15.04436 | 146.95776 | 35022 ft | 498 kts | 358° |
| 2026-04-30 13:41 | -14.97545 | 146.96099 | 35020 ft | 498 kts | 358° |
| 2026-04-30 13:42 | -14.90609 | 146.96425 | 35022 ft | 499 kts | 358° |
| 2026-04-30 13:42 | -14.80184 | 146.96915 | 35018 ft | 498 kts | 358° |
| 2026-04-30 13:43 | -14.73271 | 146.97240 | 35012 ft | 498 kts | 358° |
| 2026-04-30 13:43 | -14.66371 | 146.97563 | 35012 ft | 498 kts | 358° |
| 2026-04-30 13:44 | -14.59437 | 146.97888 | 35010 ft | 498 kts | 358° |
| 2026-04-30 13:44 | -14.52503 | 146.98213 | 35010 ft | 498 kts | 358° |
| 2026-04-30 13:45 | -14.42153 | 146.98698 | 35008 ft | 498 kts | 358° |
| 2026-04-30 13:46 | -14.35229 | 146.99021 | 35007 ft | 497 kts | 358° |
| 2026-04-30 13:46 | -14.28310 | 146.99345 | 35007 ft | 497 kts | 358° |
| 2026-04-30 13:47 | -14.21398 | 146.99668 | 35007 ft | 497 kts | 358° |
| 2026-04-30 13:47 | -14.14470 | 146.99992 | 35005 ft | 497 kts | 358° |
| 2026-04-30 13:48 | -14.07597 | 147.00311 | 35004 ft | 497 kts | 359° |
| 2026-04-30 13:48 | -14.00689 | 147.00634 | 35004 ft | 497 kts | 359° |
| 2026-04-30 13:49 | -13.93811 | 147.00956 | 35001 ft | 496 kts | 359° |
| 2026-04-30 13:49 | -13.86902 | 147.01273 | 35001 ft | 497 kts | 358° |
| 2026-04-30 13:50 | -13.79976 | 147.01590 | 35002 ft | 497 kts | 359° |
| 2026-04-30 13:50 | -13.69597 | 147.02068 | 34996 ft | 497 kts | 359° |
| 2026-04-30 13:51 | -13.62717 | 147.02386 | 34999 ft | 497 kts | 359° |
| 2026-04-30 13:51 | -13.55820 | 147.02704 | 34995 ft | 497 kts | 359° |
| 2026-04-30 13:52 | -13.48900 | 147.03022 | 34993 ft | 496 kts | 359° |
| 2026-04-30 13:52 | -13.41997 | 147.03340 | 34994 ft | 495 kts | 359° |
| 2026-04-30 13:53 | -13.35163 | 147.03655 | 34993 ft | 494 kts | 359° |
| 2026-04-30 13:53 | -13.28275 | 147.03971 | 34993 ft | 495 kts | 359° |
| 2026-04-30 13:54 | -13.21384 | 147.04287 | 34987 ft | 495 kts | 359° |
| 2026-04-30 13:54 | -13.14500 | 147.04602 | 34991 ft | 495 kts | 359° |
| 2026-04-30 13:55 | -13.07643 | 147.04917 | 34985 ft | 495 kts | 359° |
| 2026-04-30 13:55 | -13.00751 | 147.05233 | 34985 ft | 495 kts | 359° |
| 2026-04-30 13:56 | -12.93860 | 147.05549 | 34980 ft | 495 kts | 359° |
| 2026-04-30 13:56 | -12.87011 | 147.05860 | 34979 ft | 496 kts | 360° |
| 2026-04-30 13:57 | -12.80098 | 147.06177 | 34977 ft | 496 kts | 360° |
| 2026-04-30 13:57 | -12.73229 | 147.06493 | 34973 ft | 496 kts | 360° |
| 2026-04-30 13:58 | -12.62859 | 147.06968 | 34974 ft | 496 kts | 360° |
| 2026-04-30 13:59 | -12.55997 | 147.07278 | 34971 ft | 496 kts | 360° |
| 2026-04-30 13:59 | -12.49082 | 147.07594 | 34972 ft | 496 kts | 0° |
| 2026-04-30 14:00 | -12.42212 | 147.07910 | 34973 ft | 495 kts | 360° |
| 2026-04-30 14:00 | -12.31863 | 147.08383 | 34975 ft | 495 kts | 360° |
| 2026-04-30 14:01 | -12.25013 | 147.08694 | 34969 ft | 495 kts | 360° |
| 2026-04-30 14:01 | -12.18115 | 147.09009 | 34967 ft | 496 kts | 360° |
| 2026-04-30 14:02 | -12.11206 | 147.09323 | 34967 ft | 496 kts | 360° |
| 2026-04-30 14:02 | -12.04347 | 147.09636 | 34964 ft | 496 kts | 360° |
| 2026-04-30 14:03 | -12.00895 | 147.09793 | 35072 ft | 494 kts | 0° |
| 2026-04-30 14:03 | -11.97477 | 147.09954 | 35512 ft | 488 kts | 0° |
| 2026-04-30 14:03 | -11.94087 | 147.10114 | 35861 ft | 486 kts | 0° |
| 2026-04-30 14:03 | -11.90743 | 147.10270 | 35952 ft | 488 kts | 0° |
| 2026-04-30 14:04 | -11.83936 | 147.10584 | 35962 ft | 487 kts | 0° |
| 2026-04-30 14:04 | -11.77191 | 147.10897 | 35966 ft | 487 kts | 0° |
| 2026-04-30 14:05 | -11.70400 | 147.11214 | 35964 ft | 487 kts | 0° |
| 2026-04-30 14:05 | -11.63614 | 147.11531 | 35961 ft | 486 kts | 1° |
| 2026-04-30 14:06 | -11.53505 | 147.12003 | 35958 ft | 485 kts | 1° |
| 2026-04-30 14:07 | -11.43405 | 147.12471 | 35955 ft | 485 kts | 0° |
| 2026-04-30 14:08 | -11.33280 | 147.12941 | 35952 ft | 485 kts | 1° |
| 2026-04-30 14:08 | -11.23184 | 147.13415 | 35956 ft | 485 kts | 1° |
| 2026-04-30 14:09 | -11.16432 | 147.13731 | 35955 ft | 485 kts | 1° |
| 2026-04-30 14:10 | -11.06331 | 147.14195 | 35952 ft | 485 kts | 1° |
| 2026-04-30 14:10 | -11.00725 | 147.14451 | 35957 ft | 485 kts | 1° |
| 2026-04-30 14:11 | -10.93986 | 147.14764 | 35955 ft | 484 kts | 1° |
| 2026-04-30 14:11 | -10.87284 | 147.15075 | 35947 ft | 484 kts | 1° |
| 2026-04-30 14:12 | -10.80535 | 147.15391 | 35950 ft | 484 kts | 1° |
| 2026-04-30 14:12 | -10.73838 | 147.15707 | 35946 ft | 484 kts | 1° |
| 2026-04-30 14:13 | -10.67103 | 147.16011 | 35945 ft | 484 kts | 1° |
| 2026-04-30 14:13 | -10.60375 | 147.16311 | 35940 ft | 483 kts | 1° |
| 2026-04-30 14:14 | -10.53642 | 147.16610 | 35944 ft | 483 kts | 1° |
| 2026-04-30 14:14 | -10.46959 | 147.16911 | 35941 ft | 483 kts | 1° |
| 2026-04-30 14:15 | -10.40251 | 147.17215 | 35940 ft | 481 kts | 2° |
| 2026-04-30 14:15 | -10.33554 | 147.17520 | 35939 ft | 482 kts | 2° |
| 2026-04-30 14:16 | -10.26889 | 147.17822 | 35934 ft | 481 kts | 2° |
| 2026-04-30 14:16 | -10.20184 | 147.18125 | 35930 ft | 481 kts | 2° |
| 2026-04-30 14:17 | -10.13476 | 147.18428 | 35933 ft | 481 kts | 2° |
| 2026-04-30 14:17 | -10.06821 | 147.18728 | 35929 ft | 480 kts | 2° |
| 2026-04-30 14:18 | -10.00131 | 147.19030 | 35931 ft | 481 kts | 2° |
| 2026-04-30 14:18 | -9.90093 | 147.19484 | 35930 ft | 480 kts | 2° |
| 2026-04-30 14:19 | -9.80078 | 147.19935 | 35929 ft | 483 kts | 2° |
| 2026-04-30 14:20 | -9.73324 | 147.20240 | 35930 ft | 485 kts | 2° |
| 2026-04-30 14:20 | -9.63227 | 147.20694 | 35929 ft | 485 kts | 2° |
| 2026-04-30 14:21 | -9.56448 | 147.21000 | 35932 ft | 485 kts | 2° |
| 2026-04-30 14:22 | -9.46356 | 147.21358 | 35934 ft | 485 kts | 358° |
| 2026-04-30 14:22 | -9.36351 | 147.19976 | 35934 ft | 485 kts | 351° |
| 2026-04-30 14:23 | -9.23026 | 147.17572 | 35937 ft | 486 kts | 351° |
| 2026-04-30 14:24 | -9.13033 | 147.15796 | 35936 ft | 485 kts | 351° |
| 2026-04-30 14:25 | -8.99749 | 147.13456 | 35956 ft | 485 kts | 351° |
| 2026-04-30 14:26 | -8.89737 | 147.11691 | 35973 ft | 486 kts | 352° |
| 2026-04-30 14:27 | -8.79760 | 147.09934 | 35966 ft | 487 kts | 351° |
| 2026-04-30 14:27 | -8.73066 | 147.08755 | 35995 ft | 487 kts | 351° |
| 2026-04-30 14:28 | -8.63081 | 147.06997 | 36019 ft | 487 kts | 351° |
| 2026-04-30 14:28 | -8.56386 | 147.05821 | 36021 ft | 487 kts | 352° |
| 2026-04-30 14:29 | -8.44124 | 147.03663 | 36020 ft | 488 kts | 352° |
| 2026-04-30 14:31 | -8.26322 | 147.00530 | 36061 ft | 488 kts | 352° |
| 2026-04-30 14:31 | -8.16277 | 146.98772 | 36058 ft | 488 kts | 352° |
| 2026-04-30 14:32 | -8.06259 | 146.97017 | 36066 ft | 488 kts | 352° |
| 2026-04-30 14:33 | -7.99570 | 146.95844 | 36068 ft | 488 kts | 352° |
| 2026-04-30 14:33 | -7.89506 | 146.94079 | 36055 ft | 489 kts | 352° |
| 2026-04-30 14:34 | -7.82830 | 146.92910 | 36057 ft | 489 kts | 352° |
| 2026-04-30 14:34 | -7.76109 | 146.91732 | 36052 ft | 489 kts | 352° |
| 2026-04-30 14:35 | -7.66037 | 146.89968 | 36056 ft | 489 kts | 352° |
| 2026-04-30 14:36 | -7.59326 | 146.88793 | 36048 ft | 490 kts | 352° |
| 2026-04-30 14:36 | -7.52646 | 146.87622 | 36048 ft | 490 kts | 352° |
| 2026-04-30 14:37 | -7.45908 | 146.86444 | 36040 ft | 490 kts | 352° |
| 2026-04-30 14:37 | -7.39215 | 146.85276 | 36040 ft | 490 kts | 352° |
| 2026-04-30 14:38 | -7.32485 | 146.84099 | 36034 ft | 490 kts | 352° |
| 2026-04-30 14:38 | -7.25738 | 146.82916 | 36039 ft | 492 kts | 352° |
| 2026-04-30 14:39 | -7.18970 | 146.81735 | 36026 ft | 493 kts | 352° |
| 2026-04-30 14:39 | -7.12247 | 146.80563 | 36001 ft | 493 kts | 352° |
| 2026-04-30 14:40 | -7.02124 | 146.78795 | 36003 ft | 493 kts | 352° |
| 2026-04-30 14:40 | -6.95353 | 146.77614 | 35991 ft | 493 kts | 352° |
| 2026-04-30 14:41 | -6.88605 | 146.76433 | 35992 ft | 494 kts | 352° |
| 2026-04-30 14:41 | -6.81815 | 146.75251 | 35980 ft | 494 kts | 352° |
| 2026-04-30 14:42 | -6.75069 | 146.74076 | 35980 ft | 494 kts | 352° |
| 2026-04-30 14:42 | -6.68265 | 146.72891 | 35995 ft | 494 kts | 352° |
| 2026-04-30 14:43 | -6.61471 | 146.71707 | 35988 ft | 495 kts | 352° |
| 2026-04-30 14:43 | -6.54702 | 146.70554 | 36003 ft | 495 kts | 354° |
| 2026-04-30 14:44 | -6.47848 | 146.69897 | 36029 ft | 494 kts | 358° |
| 2026-04-30 14:44 | -6.41021 | 146.69437 | 36024 ft | 494 kts | 358° |
| 2026-04-30 14:45 | -6.34131 | 146.68915 | 36044 ft | 494 kts | 357° |
| 2026-04-30 14:45 | -6.27315 | 146.68337 | 36040 ft | 494 kts | 357° |
| 2026-04-30 14:46 | -6.20465 | 146.67734 | 36038 ft | 494 kts | 357° |
| 2026-04-30 14:46 | -6.14769 | 146.67234 | 36041 ft | 494 kts | 357° |
| 2026-04-30 14:47 | -6.06786 | 146.66539 | 36049 ft | 494 kts | 357° |
| 2026-04-30 14:47 | -5.99937 | 146.65944 | 36045 ft | 494 kts | 357° |
| 2026-04-30 14:48 | -5.93070 | 146.65348 | 36026 ft | 494 kts | 357° |
| 2026-04-30 14:48 | -5.86241 | 146.64755 | 36016 ft | 494 kts | 357° |
| 2026-04-30 14:49 | -5.79426 | 146.64162 | 35988 ft | 494 kts | 357° |
| 2026-04-30 14:49 | -5.72569 | 146.63566 | 35981 ft | 494 kts | 357° |
| 2026-04-30 14:50 | -5.62293 | 146.62673 | 35961 ft | 494 kts | 357° |
| 2026-04-30 14:51 | -5.52037 | 146.61783 | 35933 ft | 494 kts | 357° |
| 2026-04-30 14:52 | -5.41757 | 146.60891 | 35914 ft | 493 kts | 357° |
| 2026-04-30 14:52 | -5.31511 | 146.60002 | 35904 ft | 495 kts | 357° |
| 2026-04-30 14:53 | -5.21232 | 146.59111 | 35908 ft | 495 kts | 357° |
| 2026-04-30 14:54 | -5.07474 | 146.57918 | 35908 ft | 495 kts | 357° |
| 2026-04-30 14:55 | -4.98335 | 146.57127 | 35900 ft | 496 kts | 357° |
| 2026-04-30 14:56 | -4.84580 | 146.55935 | 35903 ft | 496 kts | 357° |
| 2026-04-30 14:57 | -4.74226 | 146.55039 | 35905 ft | 498 kts | 356° |
| 2026-04-30 14:58 | -4.60270 | 146.53832 | 35902 ft | 506 kts | 356° |
| 2026-04-30 14:58 | -4.49743 | 146.52920 | 35901 ft | 506 kts | 356° |
| 2026-04-30 15:00 | -4.32223 | 146.51404 | 35909 ft | 505 kts | 356° |
| 2026-04-30 15:01 | -4.18212 | 146.50193 | 35915 ft | 505 kts | 356° |
| 2026-04-30 15:01 | -4.07732 | 146.49287 | 35910 ft | 504 kts | 356° |
| 2026-04-30 15:02 | -4.00735 | 146.48682 | 35914 ft | 504 kts | 356° |
| 2026-04-30 15:03 | -3.83262 | 146.47173 | 35906 ft | 504 kts | 356° |
| 2026-04-30 15:04 | -3.65853 | 146.45669 | 35908 ft | 502 kts | 356° |
| 2026-04-30 15:06 | -3.48503 | 146.44172 | 35909 ft | 502 kts | 356° |
| 2026-04-30 15:07 | -3.34568 | 146.42969 | 35910 ft | 503 kts | 356° |
| 2026-04-30 15:08 | -3.20605 | 146.41764 | 35913 ft | 503 kts | 356° |
| 2026-04-30 15:09 | -3.03188 | 146.40262 | 35910 ft | 502 kts | 356° |
| 2026-04-30 15:10 | -2.89273 | 146.39062 | 35904 ft | 502 kts | 356° |
| 2026-04-30 15:11 | -2.68389 | 146.37262 | 35907 ft | 502 kts | 356° |
| 2026-04-30 15:13 | -2.50978 | 146.35762 | 35905 ft | 502 kts | 356° |
| 2026-04-30 15:14 | -2.26600 | 146.33662 | 35904 ft | 503 kts | 356° |
| 2026-04-30 15:17 | -1.95299 | 146.30968 | 35901 ft | 501 kts | 356° |
| 2026-04-30 15:19 | -1.67476 | 146.28572 | 35907 ft | 503 kts | 356° |
| 2026-04-30 17:39 | 16.55695 | 141.97409 | 37989 ft | 476 kts | 319° |
| 2026-04-30 17:42 | 16.80772 | 141.74726 | 37996 ft | 477 kts | 319° |
| 2026-04-30 17:43 | 16.93285 | 141.63385 | 37999 ft | 476 kts | 319° |
| 2026-04-30 17:44 | 17.07345 | 141.50619 | 37996 ft | 476 kts | 319° |
| 2026-04-30 17:47 | 17.29837 | 141.30141 | 38010 ft | 476 kts | 319° |
| 2026-04-30 17:48 | 17.47298 | 141.14195 | 38011 ft | 476 kts | 319° |
| 2026-04-30 17:50 | 17.67205 | 140.95964 | 38013 ft | 475 kts | 319° |
| 2026-04-30 17:52 | 17.82127 | 140.82263 | 38017 ft | 476 kts | 319° |
| 2026-04-30 17:54 | 18.04498 | 140.61660 | 38013 ft | 475 kts | 318° |
| 2026-04-30 17:56 | 18.24333 | 140.43333 | 38022 ft | 474 kts | 318° |
| 2026-04-30 17:58 | 18.39176 | 140.29580 | 38014 ft | 474 kts | 318° |
| 2026-04-30 18:00 | 18.58922 | 140.11233 | 38025 ft | 474 kts | 318° |
| 2026-04-30 18:01 | 18.71248 | 139.99751 | 38029 ft | 473 kts | 317° |
| 2026-04-30 18:02 | 18.86032 | 139.85948 | 38028 ft | 473 kts | 317° |
| 2026-04-30 18:04 | 19.00802 | 139.72125 | 38035 ft | 472 kts | 317° |
| 2026-04-30 18:06 | 19.20428 | 139.53704 | 38027 ft | 472 kts | 317° |
| 2026-04-30 18:08 | 19.37536 | 139.37595 | 38031 ft | 471 kts | 317° |
| 2026-04-30 18:10 | 19.56283 | 139.19889 | 38028 ft | 471 kts | 316° |
| 2026-04-30 18:11 | 19.73385 | 139.03687 | 38032 ft | 471 kts | 316° |
| 2026-04-30 18:13 | 19.85569 | 138.92114 | 38034 ft | 470 kts | 316° |
| 2026-04-30 18:14 | 19.97745 | 138.80524 | 38032 ft | 470 kts | 316° |
| 2026-04-30 18:15 | 20.12309 | 138.66628 | 38031 ft | 469 kts | 316° |
| 2026-04-30 18:16 | 20.22012 | 138.57350 | 38033 ft | 468 kts | 316° |
| 2026-04-30 18:17 | 20.26838 | 138.52730 | 38031 ft | 467 kts | 316° |
| 2026-04-30 18:18 | 20.34061 | 138.45806 | 38031 ft | 467 kts | 316° |
| 2026-04-30 18:18 | 20.38902 | 138.41161 | 38031 ft | 466 kts | 317° |
| 2026-04-30 18:19 | 20.43727 | 138.36526 | 38033 ft | 466 kts | 317° |
| 2026-04-30 18:19 | 20.48520 | 138.31920 | 38040 ft | 466 kts | 316° |
| 2026-04-30 18:20 | 20.53342 | 138.27282 | 38029 ft | 465 kts | 316° |
| 2026-04-30 18:20 | 20.58152 | 138.22650 | 38031 ft | 465 kts | 316° |
| 2026-04-30 18:21 | 20.62934 | 138.18040 | 38031 ft | 465 kts | 316° |
| 2026-04-30 18:21 | 20.67744 | 138.13400 | 38041 ft | 465 kts | 316° |
| 2026-04-30 18:22 | 20.72530 | 138.08780 | 38033 ft | 464 kts | 316° |
| 2026-04-30 18:22 | 20.79731 | 138.01820 | 38031 ft | 464 kts | 316° |
| 2026-04-30 18:23 | 20.84503 | 137.97202 | 38031 ft | 464 kts | 316° |
| 2026-04-30 18:23 | 20.89285 | 137.92570 | 38032 ft | 463 kts | 316° |
| 2026-04-30 18:24 | 20.96421 | 137.85652 | 38029 ft | 463 kts | 316° |
| 2026-04-30 18:25 | 21.01493 | 137.81373 | 38036 ft | 465 kts | 326° |
| 2026-04-30 18:25 | 21.09877 | 137.76117 | 38031 ft | 465 kts | 328° |
| 2026-04-30 18:26 | 21.18327 | 137.71035 | 38034 ft | 465 kts | 328° |
| 2026-04-30 18:27 | 21.26757 | 137.65922 | 38034 ft | 465 kts | 328° |
| 2026-04-30 18:28 | 21.35223 | 137.60764 | 38033 ft | 465 kts | 328° |
| 2026-04-30 18:28 | 21.42647 | 137.56237 | 38035 ft | 464 kts | 328° |
| 2026-04-30 18:29 | 21.52886 | 137.48035 | 38035 ft | 459 kts | 310° |
| 2026-04-30 18:30 | 21.60875 | 137.37328 | 38035 ft | 459 kts | 307° |
| 2026-04-30 18:31 | 21.66765 | 137.29233 | 38035 ft | 458 kts | 307° |
| 2026-04-30 18:32 | 21.72697 | 137.21162 | 38033 ft | 458 kts | 307° |
| 2026-04-30 18:33 | 21.78632 | 137.13084 | 38035 ft | 458 kts | 307° |
| 2026-04-30 18:33 | 21.84557 | 137.05006 | 38036 ft | 459 kts | 307° |
| 2026-04-30 18:34 | 21.90457 | 136.96947 | 38030 ft | 459 kts | 307° |
| 2026-04-30 18:35 | 21.94400 | 136.91555 | 38035 ft | 458 kts | 307° |
| 2026-04-30 18:35 | 21.98343 | 136.86157 | 38035 ft | 458 kts | 307° |
| 2026-04-30 18:36 | 22.04249 | 136.78063 | 38034 ft | 458 kts | 307° |
| 2026-04-30 18:37 | 22.10150 | 136.69962 | 38035 ft | 458 kts | 307° |
| 2026-04-30 18:37 | 22.14082 | 136.64559 | 38035 ft | 458 kts | 306° |
| 2026-04-30 18:38 | 22.18010 | 136.59154 | 38035 ft | 458 kts | 306° |
| 2026-04-30 18:38 | 22.21940 | 136.53743 | 38034 ft | 458 kts | 306° |
| 2026-04-30 18:39 | 22.25863 | 136.48334 | 38034 ft | 458 kts | 306° |
| 2026-04-30 18:39 | 22.29783 | 136.42924 | 38029 ft | 458 kts | 306° |
| 2026-04-30 18:40 | 22.33706 | 136.37505 | 38031 ft | 458 kts | 306° |
| 2026-04-30 18:40 | 22.37590 | 136.32136 | 38031 ft | 458 kts | 306° |
| 2026-04-30 18:41 | 22.41555 | 136.26646 | 38032 ft | 458 kts | 306° |
| 2026-04-30 18:41 | 22.45457 | 136.21239 | 38031 ft | 458 kts | 306° |
| 2026-04-30 18:42 | 22.49380 | 136.15798 | 38031 ft | 458 kts | 306° |
| 2026-04-30 18:42 | 22.55244 | 136.07654 | 38028 ft | 459 kts | 306° |
| 2026-04-30 18:45 | 22.76768 | 135.77650 | 38031 ft | 459 kts | 305° |
| 2026-04-30 18:46 | 22.80669 | 135.72196 | 38030 ft | 459 kts | 304° |
| 2026-04-30 18:46 | 22.84583 | 135.66716 | 38026 ft | 458 kts | 304° |
| 2026-04-30 18:47 | 22.88482 | 135.61250 | 38026 ft | 458 kts | 304° |
| 2026-04-30 18:47 | 22.92363 | 135.55805 | 38026 ft | 458 kts | 304° |
| 2026-04-30 18:48 | 22.96262 | 135.50328 | 38025 ft | 458 kts | 304° |
| 2026-04-30 18:48 | 23.00160 | 135.44848 | 38020 ft | 457 kts | 304° |
| 2026-04-30 18:49 | 23.04028 | 135.39402 | 38020 ft | 457 kts | 304° |
| 2026-04-30 18:49 | 23.07912 | 135.33929 | 38020 ft | 457 kts | 304° |
| 2026-04-30 18:50 | 23.11771 | 135.28488 | 38022 ft | 457 kts | 304° |
| 2026-04-30 18:50 | 23.15646 | 135.23017 | 38020 ft | 456 kts | 304° |
| 2026-04-30 18:51 | 23.19521 | 135.17538 | 38020 ft | 456 kts | 304° |
| 2026-04-30 18:51 | 23.23388 | 135.12066 | 38020 ft | 456 kts | 304° |
| 2026-04-30 18:52 | 23.27240 | 135.06609 | 38020 ft | 456 kts | 304° |
| 2026-04-30 18:52 | 23.31111 | 135.01120 | 38020 ft | 456 kts | 304° |
| 2026-04-30 18:53 | 23.34947 | 134.95676 | 38015 ft | 456 kts | 304° |
| 2026-04-30 18:53 | 23.38809 | 134.90186 | 38022 ft | 456 kts | 304° |
| 2026-04-30 18:54 | 23.42680 | 134.84679 | 38020 ft | 456 kts | 304° |
| 2026-04-30 18:54 | 23.46513 | 134.79221 | 38017 ft | 456 kts | 303° |
| 2026-04-30 18:55 | 23.50366 | 134.73727 | 38007 ft | 456 kts | 303° |
| 2026-04-30 18:55 | 23.56120 | 134.65513 | 38009 ft | 456 kts | 303° |
| 2026-04-30 18:56 | 23.61248 | 134.58182 | 38009 ft | 456 kts | 303° |
| 2026-04-30 18:57 | 23.67030 | 134.49900 | 38005 ft | 457 kts | 303° |
| 2026-04-30 18:57 | 23.70877 | 134.44382 | 38007 ft | 457 kts | 303° |
| 2026-04-30 18:58 | 23.76658 | 134.36085 | 38006 ft | 458 kts | 303° |
| 2026-04-30 18:59 | 23.82418 | 134.27797 | 38007 ft | 458 kts | 303° |
| 2026-04-30 19:00 | 23.90114 | 134.16706 | 38006 ft | 457 kts | 303° |
| 2026-04-30 19:01 | 23.97788 | 134.05620 | 38003 ft | 457 kts | 303° |
| 2026-04-30 19:02 | 24.03525 | 133.97319 | 38000 ft | 457 kts | 302° |
| 2026-04-30 19:03 | 24.11171 | 133.86232 | 38003 ft | 455 kts | 302° |
| 2026-04-30 19:04 | 24.18786 | 133.75165 | 37993 ft | 455 kts | 302° |
| 2026-04-30 19:05 | 24.26400 | 133.64075 | 38005 ft | 455 kts | 302° |
| 2026-04-30 19:06 | 24.33992 | 133.52993 | 37992 ft | 455 kts | 302° |
| 2026-04-30 19:06 | 24.39691 | 133.44656 | 37994 ft | 455 kts | 302° |
| 2026-04-30 19:07 | 24.45400 | 133.36292 | 37990 ft | 455 kts | 301° |
| 2026-04-30 19:08 | 24.52965 | 133.25184 | 37990 ft | 455 kts | 301° |
| 2026-04-30 19:09 | 24.58656 | 133.16816 | 37986 ft | 454 kts | 301° |
| 2026-04-30 19:09 | 24.62417 | 133.11274 | 37988 ft | 454 kts | 301° |
| 2026-04-30 19:10 | 24.69954 | 133.00149 | 37994 ft | 454 kts | 301° |
| 2026-04-30 19:11 | 24.75612 | 132.91783 | 37982 ft | 453 kts | 301° |
| 2026-04-30 19:12 | 24.79374 | 132.86212 | 37984 ft | 453 kts | 300° |
| 2026-04-30 19:12 | 24.83081 | 132.80716 | 37980 ft | 453 kts | 300° |
| 2026-04-30 19:13 | 24.90013 | 132.70421 | 37979 ft | 453 kts | 300° |
| 2026-04-30 19:14 | 24.93767 | 132.64839 | 37980 ft | 453 kts | 300° |
| 2026-04-30 19:14 | 24.98246 | 132.59876 | 37982 ft | 473 kts | 322° |
| 2026-04-30 19:14 | 25.01311 | 132.58423 | 37993 ft | 489 kts | 336° |
| 2026-04-30 19:15 | 25.04670 | 132.57647 | 37982 ft | 496 kts | 342° |
| 2026-04-30 19:15 | 25.14912 | 132.55731 | 37974 ft | 498 kts | 342° |
| 2026-04-30 19:16 | 25.21743 | 132.54456 | 37980 ft | 498 kts | 342° |
| 2026-04-30 19:17 | 25.31628 | 132.51622 | 37973 ft | 478 kts | 327° |
| 2026-04-30 19:17 | 25.37003 | 132.47621 | 37972 ft | 458 kts | 309° |
| 2026-04-30 19:17 | 25.39128 | 132.45042 | 37961 ft | 450 kts | 301° |
| 2026-04-30 19:18 | 25.41726 | 132.40162 | 37975 ft | 440 kts | 290° |
| 2026-04-30 19:18 | 25.43397 | 132.36045 | 37965 ft | 438 kts | 288° |
| 2026-04-30 19:19 | 25.45707 | 132.29880 | 37966 ft | 437 kts | 287° |
| 2026-04-30 19:19 | 25.49257 | 132.20522 | 37965 ft | 438 kts | 288° |
| 2026-04-30 19:20 | 25.51638 | 132.14381 | 37964 ft | 437 kts | 288° |
| 2026-04-30 19:21 | 25.55242 | 132.05106 | 37964 ft | 437 kts | 288° |
| 2026-04-30 19:22 | 25.60028 | 131.92737 | 37964 ft | 437 kts | 288° |
| 2026-04-30 19:23 | 25.67181 | 131.74176 | 37965 ft | 437 kts | 288° |
| 2026-04-30 19:24 | 25.70762 | 131.64853 | 37969 ft | 438 kts | 288° |
| 2026-04-30 19:25 | 25.76699 | 131.49352 | 37955 ft | 438 kts | 288° |
| 2026-04-30 19:26 | 25.81466 | 131.36860 | 37939 ft | 439 kts | 287° |
| 2026-04-30 19:27 | 25.85092 | 131.27550 | 37938 ft | 443 kts | 291° |
| 2026-04-30 19:28 | 25.90140 | 131.18823 | 37969 ft | 450 kts | 298° |
| 2026-04-30 19:29 | 25.97386 | 131.07483 | 37966 ft | 450 kts | 298° |
| 2026-04-30 19:30 | 26.04565 | 130.96113 | 37970 ft | 449 kts | 297° |
| 2026-04-30 19:31 | 26.11705 | 130.84732 | 37973 ft | 448 kts | 297° |
| 2026-04-30 19:31 | 26.17035 | 130.76225 | 37971 ft | 448 kts | 297° |
| 2026-04-30 19:32 | 26.20609 | 130.70515 | 37971 ft | 448 kts | 297° |
| 2026-04-30 19:32 | 26.24150 | 130.64851 | 37971 ft | 448 kts | 297° |
| 2026-04-30 19:33 | 26.27709 | 130.59150 | 37974 ft | 448 kts | 297° |
| 2026-04-30 19:33 | 26.31251 | 130.53469 | 37974 ft | 448 kts | 297° |
| 2026-04-30 19:34 | 26.34813 | 130.47749 | 37974 ft | 448 kts | 297° |
| 2026-04-30 19:35 | 26.40126 | 130.39204 | 37979 ft | 448 kts | 297° |
| 2026-04-30 19:35 | 26.43673 | 130.33491 | 37979 ft | 448 kts | 297° |
| 2026-04-30 19:36 | 26.47227 | 130.27760 | 37977 ft | 448 kts | 297° |
| 2026-04-30 19:36 | 26.52531 | 130.19190 | 37999 ft | 447 kts | 297° |
| 2026-04-30 19:37 | 26.56067 | 130.13470 | 37985 ft | 447 kts | 297° |
| 2026-04-30 19:37 | 26.59578 | 130.07782 | 37980 ft | 447 kts | 297° |
| 2026-04-30 19:38 | 26.63111 | 130.02052 | 37994 ft | 447 kts | 297° |
| 2026-04-30 19:38 | 26.66632 | 129.96333 | 37984 ft | 446 kts | 297° |
| 2026-04-30 19:39 | 26.70134 | 129.90639 | 37983 ft | 446 kts | 297° |
| 2026-04-30 19:39 | 26.73648 | 129.84917 | 37987 ft | 446 kts | 297° |
| 2026-04-30 19:40 | 26.77161 | 129.79189 | 37995 ft | 445 kts | 297° |
| 2026-04-30 19:40 | 26.80646 | 129.73503 | 37996 ft | 444 kts | 297° |
| 2026-04-30 19:41 | 26.84135 | 129.67799 | 37988 ft | 444 kts | 297° |
| 2026-04-30 19:41 | 26.87608 | 129.62114 | 37988 ft | 444 kts | 297° |
| 2026-04-30 19:42 | 26.91096 | 129.56398 | 37996 ft | 443 kts | 296° |
| 2026-04-30 19:42 | 26.94571 | 129.50699 | 37994 ft | 442 kts | 296° |
| 2026-04-30 19:43 | 26.98016 | 129.45040 | 37993 ft | 442 kts | 296° |
| 2026-04-30 19:44 | 27.03211 | 129.36489 | 37996 ft | 442 kts | 296° |
| 2026-04-30 19:44 | 27.06663 | 129.30804 | 38010 ft | 438 kts | 296° |
| 2026-04-30 19:45 | 27.10070 | 129.25184 | 38013 ft | 437 kts | 296° |
| 2026-04-30 19:45 | 27.12915 | 129.20482 | 37995 ft | 437 kts | 296° |
| 2026-04-30 19:46 | 27.16329 | 129.14833 | 38012 ft | 437 kts | 296° |
| 2026-04-30 19:46 | 27.19740 | 129.09182 | 38005 ft | 436 kts | 296° |
| 2026-04-30 19:47 | 27.23143 | 129.03541 | 38005 ft | 435 kts | 296° |
| 2026-04-30 19:47 | 27.26520 | 128.97934 | 38004 ft | 435 kts | 296° |
| 2026-04-30 19:48 | 27.29916 | 128.92288 | 38011 ft | 435 kts | 296° |
| 2026-04-30 19:48 | 27.33307 | 128.86644 | 38014 ft | 434 kts | 296° |
| 2026-04-30 19:49 | 27.36664 | 128.81051 | 38013 ft | 433 kts | 296° |
| 2026-04-30 19:49 | 27.42198 | 128.72913 | 37992 ft | 447 kts | 307° |
| 2026-04-30 19:50 | 27.44621 | 128.70656 | 37991 ft | 458 kts | 315° |
| 2026-04-30 19:50 | 27.47400 | 128.68794 | 37990 ft | 471 kts | 324° |
| 2026-04-30 19:50 | 27.50484 | 128.67398 | 38028 ft | 482 kts | 330° |
| 2026-04-30 19:50 | 27.53692 | 128.66225 | 37996 ft | 485 kts | 333° |
| 2026-04-30 19:51 | 27.60154 | 128.64100 | 38001 ft | 487 kts | 333° |
| 2026-04-30 19:51 | 27.66666 | 128.61989 | 38007 ft | 486 kts | 333° |
| 2026-04-30 19:52 | 27.73161 | 128.59826 | 38014 ft | 485 kts | 333° |
| 2026-04-30 19:52 | 27.79604 | 128.57654 | 38017 ft | 485 kts | 333° |
| 2026-04-30 19:53 | 27.86073 | 128.55456 | 38018 ft | 485 kts | 333° |
| 2026-04-30 19:53 | 27.92535 | 128.53255 | 38018 ft | 485 kts | 333° |
| 2026-04-30 19:54 | 27.98976 | 128.51064 | 38018 ft | 485 kts | 333° |
| 2026-04-30 19:54 | 28.05441 | 128.48861 | 38024 ft | 485 kts | 332° |
| 2026-04-30 19:55 | 28.11916 | 128.46653 | 38016 ft | 485 kts | 332° |
| 2026-04-30 19:55 | 28.18356 | 128.44456 | 38021 ft | 485 kts | 332° |
| 2026-04-30 19:56 | 28.24839 | 128.42249 | 38011 ft | 485 kts | 332° |
| 2026-04-30 19:56 | 28.31256 | 128.40051 | 38018 ft | 485 kts | 332° |
| 2026-04-30 19:57 | 28.37729 | 128.37828 | 38018 ft | 485 kts | 332° |
| 2026-04-30 19:57 | 28.44192 | 128.35607 | 38018 ft | 485 kts | 332° |
| 2026-04-30 19:58 | 28.50641 | 128.33391 | 38018 ft | 485 kts | 332° |
| 2026-04-30 19:58 | 28.57114 | 128.31164 | 38031 ft | 485 kts | 331° |
| 2026-04-30 19:59 | 28.63550 | 128.28947 | 38017 ft | 485 kts | 331° |
| 2026-04-30 20:00 | 28.73243 | 128.25604 | 38018 ft | 484 kts | 331° |
| 2026-04-30 20:00 | 28.79665 | 128.23385 | 38021 ft | 484 kts | 331° |
| 2026-04-30 20:01 | 28.89325 | 128.20045 | 38021 ft | 482 kts | 330° |
| 2026-04-30 20:01 | 28.95741 | 128.17823 | 38027 ft | 480 kts | 330° |
| 2026-04-30 20:02 | 29.05243 | 128.14507 | 38021 ft | 475 kts | 329° |
| 2026-04-30 20:03 | 29.14661 | 128.10946 | 38021 ft | 474 kts | 328° |
| 2026-04-30 20:03 | 29.20925 | 128.08558 | 38021 ft | 474 kts | 328° |
| 2026-04-30 20:04 | 29.27164 | 128.06201 | 38022 ft | 474 kts | 328° |
| 2026-04-30 20:05 | 29.36594 | 128.02650 | 38021 ft | 474 kts | 328° |
| 2026-04-30 20:05 | 29.45972 | 127.99111 | 38019 ft | 474 kts | 328° |
| 2026-04-30 20:06 | 29.52253 | 127.96736 | 38027 ft | 474 kts | 328° |
| 2026-04-30 20:06 | 29.58578 | 127.94449 | 38026 ft | 476 kts | 329° |
| 2026-04-30 20:07 | 29.64877 | 127.92298 | 38021 ft | 473 kts | 329° |
| 2026-04-30 20:08 | 29.74288 | 127.89057 | 38030 ft | 471 kts | 328° |
| 2026-04-30 20:08 | 29.79505 | 127.87235 | 38025 ft | 470 kts | 328° |
| 2026-04-30 20:09 | 29.85724 | 127.85057 | 38062 ft | 471 kts | 329° |
| 2026-04-30 20:09 | 29.95112 | 127.81768 | 38022 ft | 470 kts | 329° |
| 2026-04-30 20:10 | 30.04490 | 127.78478 | 38022 ft | 470 kts | 329° |
| 2026-04-30 20:11 | 30.13852 | 127.75186 | 38031 ft | 469 kts | 329° |
| 2026-04-30 20:11 | 30.20106 | 127.72986 | 38019 ft | 468 kts | 329° |
| 2026-04-30 20:12 | 30.29448 | 127.69709 | 38026 ft | 466 kts | 330° |
| 2026-04-30 20:13 | 30.35688 | 127.67677 | 38025 ft | 466 kts | 331° |
| 2026-04-30 20:13 | 30.41925 | 127.65673 | 38026 ft | 465 kts | 331° |
| 2026-04-30 20:14 | 30.48159 | 127.63647 | 38024 ft | 465 kts | 330° |
| 2026-04-30 20:14 | 30.54371 | 127.61612 | 38020 ft | 465 kts | 330° |
| 2026-04-30 20:15 | 30.60601 | 127.59565 | 38027 ft | 464 kts | 330° |
| 2026-04-30 20:15 | 30.66821 | 127.57517 | 38020 ft | 465 kts | 331° |
| 2026-04-30 20:16 | 30.73045 | 127.55467 | 38020 ft | 465 kts | 331° |
| 2026-04-30 20:16 | 30.79278 | 127.53413 | 38019 ft | 465 kts | 331° |
| 2026-04-30 20:17 | 30.85504 | 127.51359 | 38014 ft | 465 kts | 331° |
| 2026-04-30 20:17 | 30.91732 | 127.49298 | 38019 ft | 466 kts | 332° |
| 2026-04-30 20:18 | 30.97976 | 127.47228 | 38044 ft | 467 kts | 332° |
| 2026-04-30 20:18 | 31.04208 | 127.45155 | 38020 ft | 465 kts | 332° |
| 2026-04-30 20:19 | 31.10421 | 127.43101 | 38018 ft | 464 kts | 332° |
| 2026-04-30 20:19 | 31.16620 | 127.41042 | 38018 ft | 465 kts | 333° |
| 2026-04-30 20:20 | 31.22822 | 127.38978 | 38016 ft | 466 kts | 333° |
| 2026-04-30 20:20 | 31.29063 | 127.36912 | 38018 ft | 466 kts | 333° |
| 2026-04-30 20:21 | 31.35304 | 127.34857 | 38021 ft | 466 kts | 333° |
| 2026-04-30 20:21 | 31.41550 | 127.32797 | 38018 ft | 468 kts | 334° |
| 2026-04-30 20:22 | 31.47832 | 127.30720 | 38014 ft | 469 kts | 334° |
| 2026-04-30 20:22 | 31.54111 | 127.28644 | 38015 ft | 469 kts | 334° |
| 2026-04-30 20:23 | 31.60396 | 127.26564 | 38016 ft | 469 kts | 334° |
| 2026-04-30 20:23 | 31.66670 | 127.24481 | 38018 ft | 470 kts | 334° |
| 2026-04-30 20:24 | 31.72965 | 127.22384 | 38014 ft | 469 kts | 334° |
| 2026-04-30 20:24 | 31.79201 | 127.20312 | 38014 ft | 467 kts | 334° |
| 2026-04-30 20:25 | 31.88583 | 127.17189 | 38028 ft | 468 kts | 335° |
| 2026-04-30 20:26 | 31.98016 | 127.14035 | 38009 ft | 471 kts | 335° |
| 2026-04-30 20:26 | 32.07482 | 127.10877 | 38009 ft | 471 kts | 335° |
| 2026-04-30 20:27 | 32.13403 | 127.08066 | 38013 ft | 454 kts | 322° |
| 2026-04-30 20:27 | 32.18278 | 127.03576 | 38005 ft | 438 kts | 306° |
| 2026-04-30 20:28 | 32.21692 | 126.97728 | 38018 ft | 426 kts | 291° |
| 2026-04-30 20:28 | 32.23446 | 126.91122 | 38007 ft | 421 kts | 277° |
| 2026-04-30 20:29 | 32.23535 | 126.84282 | 38009 ft | 421 kts | 263° |
| 2026-04-30 20:30 | 32.21532 | 126.74169 | 38005 ft | 422 kts | 257° |
| 2026-04-30 20:31 | 32.17022 | 126.54076 | 38020 ft | 422 kts | 258° |
| 2026-04-30 20:32 | 32.13392 | 126.37254 | 38020 ft | 424 kts | 258° |
| 2026-04-30 20:33 | 32.11444 | 126.28332 | 38025 ft | 419 kts | 258° |
| 2026-04-30 20:34 | 32.09020 | 126.17269 | 38024 ft | 421 kts | 259° |
| 2026-04-30 20:35 | 32.07055 | 126.08329 | 38029 ft | 422 kts | 259° |
| 2026-04-30 20:35 | 32.04873 | 125.98282 | 38028 ft | 421 kts | 259° |
| 2026-04-30 20:36 | 32.03444 | 125.91597 | 38025 ft | 419 kts | 259° |
| 2026-04-30 20:37 | 32.01307 | 125.81662 | 38030 ft | 416 kts | 259° |
| 2026-04-30 20:37 | 31.99877 | 125.75057 | 38036 ft | 416 kts | 259° |
| 2026-04-30 20:38 | 31.98413 | 125.68454 | 38034 ft | 418 kts | 259° |
| 2026-04-30 20:38 | 31.96933 | 125.61833 | 38035 ft | 418 kts | 259° |
| 2026-04-30 20:39 | 31.94726 | 125.51959 | 38029 ft | 416 kts | 259° |
| 2026-04-30 20:40 | 31.92521 | 125.42115 | 38038 ft | 415 kts | 259° |
| 2026-04-30 20:40 | 31.91048 | 125.35552 | 38043 ft | 415 kts | 259° |
| 2026-04-30 20:41 | 31.88828 | 125.25696 | 38043 ft | 415 kts | 259° |
| 2026-04-30 20:41 | 31.87343 | 125.19127 | 38043 ft | 416 kts | 259° |
| 2026-04-30 20:42 | 31.85853 | 125.12551 | 38010 ft | 416 kts | 259° |
| 2026-04-30 20:43 | 31.83625 | 125.02762 | 38050 ft | 411 kts | 259° |
| 2026-04-30 20:43 | 31.82157 | 124.96271 | 38049 ft | 411 kts | 261° |
| 2026-04-30 20:44 | 31.80057 | 124.86476 | 38049 ft | 412 kts | 261° |
| 2026-04-30 20:45 | 31.77236 | 124.73412 | 38042 ft | 412 kts | 261° |
| 2026-04-30 20:45 | 31.75809 | 124.66878 | 38050 ft | 412 kts | 261° |
| 2026-04-30 20:46 | 31.72959 | 124.53867 | 38053 ft | 411 kts | 261° |
| 2026-04-30 20:47 | 31.70813 | 124.44119 | 38055 ft | 412 kts | 262° |
| 2026-04-30 20:48 | 31.68653 | 124.34343 | 38055 ft | 413 kts | 262° |
| 2026-04-30 20:48 | 31.67218 | 124.27870 | 38007 ft | 413 kts | 262° |
| 2026-04-30 20:49 | 31.65779 | 124.21406 | 38058 ft | 407 kts | 262° |
| 2026-04-30 20:50 | 31.63627 | 124.11755 | 38056 ft | 408 kts | 262° |
| 2026-04-30 20:50 | 31.62188 | 124.05311 | 38054 ft | 408 kts | 262° |
| 2026-04-30 20:51 | 31.60744 | 123.98871 | 38057 ft | 408 kts | 262° |
| 2026-04-30 20:51 | 31.58624 | 123.89198 | 38065 ft | 409 kts | 263° |
| 2026-04-30 20:52 | 31.57218 | 123.82723 | 38057 ft | 410 kts | 263° |
| 2026-04-30 20:53 | 31.55087 | 123.73005 | 38069 ft | 410 kts | 263° |
| 2026-04-30 20:53 | 31.53656 | 123.66529 | 37803 ft | 410 kts | 264° |
| 2026-04-30 20:54 | 31.52223 | 123.60050 | 37290 ft | 412 kts | 264° |
| 2026-04-30 20:54 | 31.51503 | 123.56789 | 37027 ft | 413 kts | 264° |
| 2026-04-30 20:54 | 31.50781 | 123.53530 | 36763 ft | 414 kts | 264° |
| 2026-04-30 20:55 | 31.49378 | 123.47019 | 36262 ft | 414 kts | 266° |
| 2026-04-30 20:55 | 31.48764 | 123.43727 | 36004 ft | 414 kts | 267° |
| 2026-04-30 20:55 | 31.48157 | 123.40430 | 35741 ft | 415 kts | 267° |
| 2026-04-30 20:56 | 31.46926 | 123.33865 | 34711 ft | 411 kts | 268° |
| 2026-04-30 20:56 | 31.46307 | 123.30598 | 33820 ft | 414 kts | 268° |
| 2026-04-30 20:56 | 31.45046 | 123.23896 | 31625 ft | 427 kts | 267° |
| 2026-04-30 20:57 | 31.44397 | 123.20489 | 30666 ft | 430 kts | 266° |
| 2026-04-30 20:57 | 31.43741 | 123.17067 | 29729 ft | 432 kts | 266° |
| 2026-04-30 20:57 | 31.43080 | 123.13635 | 28784 ft | 432 kts | 266° |
| 2026-04-30 20:58 | 31.41764 | 123.06813 | 27252 ft | 426 kts | 265° |
| 2026-04-30 20:58 | 31.41114 | 123.03453 | 26672 ft | 419 kts | 265° |
| 2026-04-30 20:58 | 31.40475 | 123.00153 | 26102 ft | 414 kts | 265° |
| 2026-04-30 20:58 | 31.39845 | 122.96897 | 25532 ft | 408 kts | 264° |
| 2026-04-30 20:59 | 31.38605 | 122.90494 | 24378 ft | 398 kts | 264° |
| 2026-04-30 20:59 | 31.37997 | 122.87359 | 23828 ft | 393 kts | 263° |
| 2026-04-30 21:00 | 31.36800 | 122.81211 | 22648 ft | 382 kts | 263° |
| 2026-04-30 21:00 | 31.35636 | 122.75242 | 21564 ft | 370 kts | 264° |
| 2026-04-30 21:01 | 31.34560 | 122.69444 | 20472 ft | 361 kts | 264° |
| 2026-04-30 21:01 | 31.34037 | 122.66625 | 19927 ft | 357 kts | 264° |
| 2026-04-30 21:01 | 31.32980 | 122.60966 | 18822 ft | 352 kts | 264° |
| 2026-04-30 21:02 | 31.32463 | 122.58213 | 18257 ft | 350 kts | 264° |
| 2026-04-30 21:02 | 31.31942 | 122.55441 | 17674 ft | 348 kts | 264° |
| 2026-04-30 21:02 | 31.31408 | 122.52609 | 17006 ft | 358 kts | 264° |
| 2026-04-30 21:02 | 31.30880 | 122.49806 | 16513 ft | 355 kts | 264° |
| 2026-04-30 21:03 | 31.30350 | 122.47011 | 15981 ft | 351 kts | 265° |
| 2026-04-30 21:03 | 31.29825 | 122.44237 | 15395 ft | 349 kts | 265° |
| 2026-04-30 21:03 | 31.29303 | 122.41480 | 14799 ft | 348 kts | 265° |
| 2026-04-30 21:03 | 31.28848 | 122.38719 | 14236 ft | 341 kts | 270° |
| 2026-04-30 21:04 | 31.28863 | 122.36021 | 13698 ft | 329 kts | 283° |
| 2026-04-30 21:04 | 31.29230 | 122.33387 | 13132 ft | 323 kts | 285° |
| 2026-04-30 21:04 | 31.30060 | 122.28258 | 12094 ft | 320 kts | 285° |
| 2026-04-30 21:05 | 31.30467 | 122.25712 | 11587 ft | 318 kts | 285° |
| 2026-04-30 21:05 | 31.30869 | 122.23170 | 11177 ft | 312 kts | 285° |
| 2026-04-30 21:05 | 31.31247 | 122.20736 | 11052 ft | 297 kts | 285° |
| 2026-04-30 21:05 | 31.31605 | 122.18426 | 10943 ft | 282 kts | 286° |
| 2026-04-30 21:06 | 31.31946 | 122.16227 | 10841 ft | 267 kts | 286° |
| 2026-04-30 21:06 | 31.32270 | 122.14141 | 10731 ft | 254 kts | 286° |
| 2026-04-30 21:06 | 31.32579 | 122.12155 | 10619 ft | 245 kts | 287° |
| 2026-04-30 21:06 | 31.32886 | 122.10202 | 10514 ft | 244 kts | 287° |
| 2026-04-30 21:07 | 31.33193 | 122.08249 | 10261 ft | 243 kts | 287° |
| 2026-04-30 21:07 | 31.33498 | 122.06298 | 9922 ft | 245 kts | 287° |
| 2026-04-30 21:07 | 31.33816 | 122.04287 | 9677 ft | 254 kts | 286° |
| 2026-04-30 21:07 | 31.34142 | 122.02208 | 9307 ft | 264 kts | 285° |
| 2026-04-30 21:08 | 31.34471 | 122.00084 | 8892 ft | 266 kts | 285° |
| 2026-04-30 21:08 | 31.34798 | 121.97955 | 8528 ft | 265 kts | 284° |
| 2026-04-30 21:08 | 31.35117 | 121.95864 | 8337 ft | 255 kts | 284° |
| 2026-04-30 21:08 | 31.35419 | 121.93875 | 8217 ft | 242 kts | 284° |
| 2026-04-30 21:09 | 31.35706 | 121.91986 | 8102 ft | 230 kts | 285° |
| 2026-04-30 21:09 | 31.35979 | 121.90197 | 8008 ft | 217 kts | 285° |
| 2026-04-30 21:09 | 31.36244 | 121.88477 | 7858 ft | 214 kts | 285° |
| 2026-04-30 21:09 | 31.36523 | 121.86772 | 7515 ft | 213 kts | 287° |
| 2026-04-30 21:10 | 31.37104 | 121.85205 | 7203 ft | 210 kts | 308° |
| 2026-04-30 21:10 | 31.38207 | 121.84129 | 6909 ft | 209 kts | 333° |
| 2026-04-30 21:10 | 31.39563 | 121.83504 | 6607 ft | 210 kts | 340° |
| 2026-04-30 21:10 | 31.40953 | 121.82976 | 6309 ft | 210 kts | 341° |
| 2026-04-30 21:11 | 31.42296 | 121.82378 | 6004 ft | 209 kts | 332° |
| 2026-04-30 21:11 | 31.43352 | 121.81227 | 5707 ft | 211 kts | 303° |
| 2026-04-30 21:11 | 31.43720 | 121.79550 | 5417 ft | 215 kts | 271° |
| 2026-04-30 21:11 | 31.43421 | 121.77826 | 5152 ft | 217 kts | 257° |
| 2026-04-30 21:12 | 31.42865 | 121.76204 | 4829 ft | 220 kts | 244° |
| 2026-04-30 21:12 | 31.41779 | 121.74934 | 4481 ft | 227 kts | 213° |
| 2026-04-30 21:12 | 31.40281 | 121.74338 | 4144 ft | 228 kts | 195° |
| 2026-04-30 21:12 | 31.38732 | 121.73979 | 3881 ft | 227 kts | 193° |
| 2026-04-30 21:13 | 31.37164 | 121.73821 | 3680 ft | 227 kts | 179° |
| 2026-04-30 21:13 | 31.35624 | 121.74172 | 3501 ft | 222 kts | 165° |
| 2026-04-30 21:13 | 31.34178 | 121.74735 | 3420 ft | 217 kts | 162° |
| 2026-04-30 21:13 | 31.32755 | 121.75289 | 3343 ft | 210 kts | 163° |
| 2026-04-30 21:14 | 31.31385 | 121.75811 | 3075 ft | 205 kts | 164° |
| 2026-04-30 21:14 | 31.30035 | 121.76317 | 2797 ft | 202 kts | 165° |
| 2026-04-30 21:14 | 31.28713 | 121.76811 | 2541 ft | 198 kts | 165° |
| 2026-04-30 21:14 | 31.27415 | 121.77298 | 2302 ft | 194 kts | 165° |
| 2026-04-30 21:15 | 31.26140 | 121.77779 | 2102 ft | 192 kts | 165° |
| 2026-04-30 21:15 | 31.24875 | 121.78260 | 1860 ft | 191 kts | 166° |
| 2026-04-30 21:15 | 31.23625 | 121.78735 | 1597 ft | 185 kts | 166° |
| 2026-04-30 21:15 | 31.22446 | 121.79182 | 1341 ft | 171 kts | 166° |
| 2026-04-30 21:16 | 31.21355 | 121.79594 | 1108 ft | 159 kts | 166° |
| 2026-04-30 21:16 | 31.20343 | 121.79983 | 928 ft | 147 kts | 165° |
| 2026-04-30 21:16 | 31.19403 | 121.80343 | 736 ft | 139 kts | 166° |
| 2026-04-30 21:16 | 31.18487 | 121.80683 | 559 ft | 138 kts | 166° |
| 2026-04-30 21:17 | 31.17568 | 121.81016 | 421 ft | 139 kts | 164° |
| 2026-04-30 21:17 | 31.16652 | 121.81378 | 231 ft | 138 kts | 161° |
| 2026-04-30 21:17 | 31.15742 | 121.81730 | 58 ft | 137 kts | 163° |
| 2026-04-30 21:17 | 31.14882 | 121.82049 | 27 ft | 108 kts | 162° |
| 2026-04-30 21:18 | 31.14396 | 121.82228 | 28 ft | 45 kts | 162° |
| 2026-04-30 21:18 | 31.14115 | 121.82318 | 28 ft | 39 kts | 178° |
| 2026-04-30 21:18 | 31.13949 | 121.82290 | 28 ft | 20 kts | 190° |
| 2026-04-30 21:18 | 31.13891 | 121.82241 | 29 ft | 6 kts | 273° |
| 2026-04-30 21:19 | 31.13918 | 121.82209 | 29 ft | 8 kts | 329° |
| 2026-04-30 21:19 | 31.14001 | 121.82169 | 29 ft | 16 kts | 342° |
| 2026-04-30 21:19 | 31.14120 | 121.82126 | 29 ft | 20 kts | 342° |
| 2026-04-30 21:19 | 31.14258 | 121.82074 | 29 ft | 22 kts | 342° |
| 2026-04-30 21:20 | 31.14410 | 121.82017 | 28 ft | 24 kts | 342° |
| 2026-04-30 21:20 | 31.14577 | 121.81955 | 28 ft | 25 kts | 341° |
| 2026-04-30 21:20 | 31.14733 | 121.81895 | 28 ft | 25 kts | 342° |
| 2026-04-30 21:20 | 31.14881 | 121.81839 | 27 ft | 20 kts | 342° |
| 2026-04-30 21:21 | 31.14972 | 121.81805 | 28 ft | 11 kts | 337° |
| 2026-04-30 21:21 | 31.14985 | 121.81759 | 28 ft | 7 kts | 260° |
| 2026-04-30 21:21 | 31.14919 | 121.81519 | 27 ft | 23 kts | 252° |
| 2026-04-30 21:22 | 31.14886 | 121.81403 | 28 ft | 22 kts | 252° |
| 2026-04-30 21:22 | 31.14823 | 121.81043 | 29 ft | 10 kts | 329° |
| 2026-04-30 21:23 | 31.14921 | 121.81001 | 29 ft | 18 kts | 342° |
| 2026-04-30 21:23 | 31.15051 | 121.80952 | 29 ft | 19 kts | 342° |
| 2026-04-30 21:23 | 31.15279 | 121.80867 | 29 ft | 3 kts | 342° |
| 2026-04-30 21:24 | 31.15303 | 121.80840 | 29 ft | 5 kts | 278° |
| 2026-04-30 21:24 | 31.15290 | 121.80788 | 29 ft | 4 kts | 253° |
| 2026-04-30 21:24 | 31.15282 | 121.80759 | 29 ft | 0 kts | 253° |